Wetterdaten: Dienstag, 15.09.2020
Datum Zeit Temp. Aussen Temp. o. S. Temp +5cm Feuchte Auss Luftdruck Regen Sonnenschein Regendauer Solar Windben Empfang
15.09.2020 00:00 20,4 C 18,3 C 16,7 C 77 % 1021,3 hPa 0,0 l/m 0 min 0 min 0 W/m 0,0 km/h (0 Bft) 97,87 %
15.09.2020 00:02 20,4 C 18,3 C 16,7 C 77 % 1021,3 hPa 0,0 l/m 0 min 0 min 0 W/m 0,0 km/h (0 Bft) 97,50 %
15.09.2020 00:04 20,3 C 18,3 C 16,7 C 77 % 1021,4 hPa 0,0 l/m 0 min 0 min 0 W/m 0,0 km/h (0 Bft) 93,62 %
15.09.2020 00:07 20,3 C 18,9 C 16,7 C 76 % 1021,3 hPa 0,0 l/m 0 min 0 min 0 W/m 6,4 km/h (2 Bft) 95,71 %
15.09.2020 00:10 20,2 C 18,9 C 16,7 C 76 % 1021,3 hPa 0,0 l/m 0 min 0 min 0 W/m 3,2 km/h (1 Bft) 95,71 %
15.09.2020 00:12 20,2 C 18,9 C 16,7 C 76 % 1021,3 hPa 0,0 l/m 0 min 0 min 0 W/m 3,2 km/h (1 Bft) 97,87 %
15.09.2020 00:14 20,2 C 18,9 C 16,7 C 76 % 1021,3 hPa 0,0 l/m 0 min 0 min 0 W/m 3,2 km/h (1 Bft) 97,87 %
15.09.2020 00:16 20,2 C 18,9 C 16,7 C 76 % 1021,3 hPa 0,0 l/m 0 min 0 min 0 W/m 3,2 km/h (1 Bft) 97,87 %
15.09.2020 00:18 20,1 C 19,4 C 16,7 C 76 % 1021,3 hPa 0,0 l/m 0 min 0 min 0 W/m 6,4 km/h (2 Bft) 97,87 %
15.09.2020 00:20 20,1 C 19,4 C 17,2 C 76 % 1021,3 hPa 0,0 l/m 0 min 0 min 0 W/m 12,9 km/h (3 Bft) 97,83 %
15.09.2020 00:22 20,1 C 19,4 C 17,2 C 76 % 1021,3 hPa 0,0 l/m 0 min 0 min 0 W/m 6,4 km/h (2 Bft) 97,87 %
15.09.2020 00:24 20,1 C 20,0 C 17,2 C 76 % 1021,3 hPa 0,0 l/m 0 min 0 min 0 W/m 6,4 km/h (2 Bft) 97,87 %
15.09.2020 00:26 20,1 C 20,0 C 17,2 C 76 % 1021,3 hPa 0,0 l/m 0 min 0 min 0 W/m 12,9 km/h (3 Bft) 97,87 %
15.09.2020 00:28 20,1 C 19,4 C 17,2 C 75 % 1021,3 hPa 0,0 l/m 0 min 0 min 0 W/m 6,4 km/h (2 Bft) 97,87 %
15.09.2020 00:30 20,1 C 19,4 C 17,2 C 75 % 1021,3 hPa 0,0 l/m 0 min 0 min 0 W/m 3,2 km/h (1 Bft) 97,83 %
15.09.2020 00:32 20,1 C 19,4 C 17,2 C 75 % 1021,3 hPa 0,0 l/m 0 min 0 min 0 W/m 6,4 km/h (2 Bft) 97,87 %
15.09.2020 00:34 20,2 C 19,4 C 17,2 C 75 % 1021,3 hPa 0,0 l/m 0 min 0 min 0 W/m 3,2 km/h (1 Bft) 95,74 %
15.09.2020 00:36 20,2 C 19,4 C 17,2 C 75 % 1021,3 hPa 0,0 l/m 0 min 0 min 0 W/m 3,2 km/h (1 Bft) 93,62 %
15.09.2020 00:38 20,2 C 19,4 C 17,2 C 75 % 1021,3 hPa 0,0 l/m 0 min 0 min 0 W/m 3,2 km/h (1 Bft) 95,74 %
15.09.2020 00:40 20,2 C 19,4 C 17,2 C 75 % 1021,3 hPa 0,0 l/m 0 min 0 min 0 W/m 3,2 km/h (1 Bft) 95,74 %
15.09.2020 00:42 20,2 C 19,4 C 17,2 C 75 % 1021,3 hPa 0,0 l/m 0 min 0 min 0 W/m 3,2 km/h (1 Bft) 95,74 %
15.09.2020 00:44 20,2 C 19,4 C 17,2 C 75 % 1021,3 hPa 0,0 l/m 0 min 0 min 0 W/m 0,0 km/h (0 Bft) 95,65 %
15.09.2020 00:46 20,2 C 19,4 C 17,2 C 75 % 1021,3 hPa 0,0 l/m 0 min 0 min 0 W/m 6,4 km/h (2 Bft) 95,74 %
15.09.2020 00:48 20,2 C 19,4 C 17,2 C 75 % 1021,3 hPa 0,0 l/m 0 min 0 min 0 W/m 6,4 km/h (2 Bft) 93,62 %
15.09.2020 00:50 20,2 C 19,4 C 17,8 C 75 % 1021,3 hPa 0,0 l/m 0 min 0 min 0 W/m 6,4 km/h (2 Bft) 95,74 %
15.09.2020 00:52 20,3 C 19,4 C 17,8 C 75 % 1021,3 hPa 0,0 l/m 0 min 0 min 0 W/m 6,4 km/h (2 Bft) 95,74 %
15.09.2020 00:54 20,3 C 19,4 C 17,8 C 74 % 1021,3 hPa 0,0 l/m 0 min 0 min 0 W/m 3,2 km/h (1 Bft) 93,62 %
15.09.2020 00:56 20,3 C 20,0 C 17,8 C 74 % 1021,3 hPa 0,0 l/m 0 min 0 min 0 W/m 6,4 km/h (2 Bft) 95,65 %
15.09.2020 00:58 20,3 C 20,0 C 18,3 C 74 % 1021,3 hPa 0,0 l/m 0 min 0 min 0 W/m 6,4 km/h (2 Bft) 95,74 %
15.09.2020 01:00 20,4 C 20,0 C 18,3 C 74 % 1021,3 hPa 0,0 l/m 0 min 0 min 0 W/m 12,9 km/h (3 Bft) 95,74 %
15.09.2020 01:02 20,4 C 20,0 C 18,3 C 74 % 1021,3 hPa 0,0 l/m 0 min 0 min 0 W/m 6,4 km/h (2 Bft) 95,74 %
15.09.2020 01:04 20,4 C 20,0 C 18,3 C 74 % 1021,3 hPa 0,0 l/m 0 min 0 min 0 W/m 12,9 km/h (3 Bft) 95,74 %
15.09.2020 01:06 20,4 C 20,0 C 18,3 C 74 % 1021,2 hPa 0,0 l/m 0 min 0 min 0 W/m 12,9 km/h (3 Bft) 97,83 %
15.09.2020 01:08 20,4 C 20,0 C 18,9 C 74 % 1021,3 hPa 0,0 l/m 0 min 0 min 0 W/m 6,4 km/h (2 Bft) 97,87 %
15.09.2020 01:10 20,5 C 20,0 C 18,9 C 74 % 1021,2 hPa 0,0 l/m 0 min 0 min 0 W/m 3,2 km/h (1 Bft) 97,87 %
15.09.2020 01:12 20,5 C 20,0 C 18,9 C 74 % 1021,2 hPa 0,0 l/m 0 min 0 min 0 W/m 12,9 km/h (3 Bft) 95,74 %
15.09.2020 01:14 20,6 C 20,0 C 18,9 C 74 % 1021,2 hPa 0,0 l/m 0 min 0 min 0 W/m 6,4 km/h (2 Bft) 95,74 %
15.09.2020 01:16 20,6 C 19,4 C 18,9 C 74 % 1021,2 hPa 0,0 l/m 0 min 0 min 0 W/m 6,4 km/h (2 Bft) 97,87 %
15.09.2020 01:18 20,6 C 19,4 C 18,9 C 74 % 1021,2 hPa 0,0 l/m 0 min 0 min 0 W/m 12,9 km/h (3 Bft) 100,00 %
15.09.2020 01:20 20,6 C 20,0 C 18,9 C 74 % 1021,2 hPa 0,0 l/m 0 min 0 min 0 W/m 12,9 km/h (3 Bft) 95,74 %
15.09.2020 01:22 20,6 C 19,4 C 18,9 C 74 % 1021,2 hPa 0,0 l/m 0 min 0 min 0 W/m 6,4 km/h (2 Bft) 100,00 %
15.09.2020 01:24 20,6 C 19,4 C 18,9 C 74 % 1021,2 hPa 0,0 l/m 0 min 0 min 0 W/m 6,4 km/h (2 Bft) 97,87 %
15.09.2020 01:26 20,7 C 19,4 C 18,9 C 74 % 1021,1 hPa 0,0 l/m 0 min 0 min 0 W/m 6,4 km/h (2 Bft) 97,87 %
15.09.2020 01:28 20,7 C 19,4 C 18,9 C 73 % 1021,1 hPa 0,0 l/m 0 min 0 min 0 W/m 16,1 km/h (3 Bft) 97,87 %
15.09.2020 01:30 20,7 C 19,4 C 18,9 C 73 % 1021,1 hPa 0,0 l/m 0 min 0 min 0 W/m 6,4 km/h (2 Bft) 100,00 %
15.09.2020 01:32 20,7 C 19,4 C 18,9 C 73 % 1021,1 hPa 0,0 l/m 0 min 0 min 0 W/m 12,9 km/h (3 Bft) 100,00 %
15.09.2020 01:34 20,7 C 19,4 C 18,9 C 73 % 1021,1 hPa 0,0 l/m 0 min 0 min 0 W/m 6,4 km/h (2 Bft) 100,00 %
15.09.2020 01:36 20,7 C 19,4 C 18,9 C 73 % 1021,1 hPa 0,0 l/m 0 min 0 min 0 W/m 6,4 km/h (2 Bft) 100,00 %
15.09.2020 01:38 20,7 C 19,4 C 18,9 C 73 % 1021,1 hPa 0,0 l/m 0 min 0 min 0 W/m 6,4 km/h (2 Bft) 100,00 %
15.09.2020 01:40 20,7 C 19,4 C 18,3 C 73 % 1021,1 hPa 0,0 l/m 0 min 0 min 0 W/m 6,4 km/h (2 Bft) 100,00 %
15.09.2020 01:42 20,7 C 19,4 C 18,3 C 73 % 1021,0 hPa 0,0 l/m 0 min 0 min 0 W/m 12,9 km/h (3 Bft) 100,00 %
15.09.2020 01:44 20,7 C 19,4 C 18,3 C 73 % 1021,1 hPa 0,0 l/m 0 min 0 min 0 W/m 16,1 km/h (3 Bft) 100,00 %
15.09.2020 01:46 20,7 C 19,4 C 18,3 C 73 % 1021,0 hPa 0,0 l/m 0 min 0 min 0 W/m 12,9 km/h (3 Bft) 100,00 %
15.09.2020 01:48 20,7 C 19,4 C 18,3 C 73 % 1021,0 hPa 0,0 l/m 0 min 0 min 0 W/m 6,4 km/h (2 Bft) 100,00 %
15.09.2020 01:50 20,7 C 19,4 C 18,3 C 73 % 1021,0 hPa 0,0 l/m 0 min 0 min 0 W/m 12,9 km/h (3 Bft) 100,00 %
15.09.2020 01:52 20,7 C 19,4 C 18,9 C 73 % 1021,0 hPa 0,0 l/m 0 min 0 min 0 W/m 12,9 km/h (3 Bft) 95,74 %
15.09.2020 01:54 20,7 C 19,4 C 18,9 C 73 % 1021,1 hPa 0,0 l/m 0 min 0 min 0 W/m 12,9 km/h (3 Bft) 100,00 %
15.09.2020 01:56 20,6 C 19,4 C 18,9 C 73 % 1021,0 hPa 0,0 l/m 0 min 0 min 0 W/m 12,9 km/h (3 Bft) 100,00 %
15.09.2020 01:58 20,6 C 19,4 C 18,9 C 74 % 1021,1 hPa 0,0 l/m 0 min 0 min 0 W/m 6,4 km/h (2 Bft) 100,00 %
15.09.2020 02:00 20,6 C 19,4 C 18,9 C 73 % 1021,0 hPa 0,0 l/m 0 min 0 min 0 W/m 12,9 km/h (3 Bft) 100,00 %
15.09.2020 02:02 20,6 C 19,4 C 18,9 C 73 % 1021,0 hPa 0,0 l/m 0 min 0 min 0 W/m 6,4 km/h (2 Bft) 97,87 %
15.09.2020 02:04 20,6 C 19,4 C 18,9 C 73 % 1021,0 hPa 0,0 l/m 0 min 0 min 0 W/m 12,9 km/h (3 Bft) 97,83 %
15.09.2020 02:06 20,6 C 19,4 C 18,9 C 73 % 1021,0 hPa 0,0 l/m 0 min 0 min 0 W/m 9,7 km/h (2 Bft) 100,00 %
15.09.2020 02:08 20,6 C 19,4 C 18,9 C 73 % 1021,0 hPa 0,0 l/m 0 min 0 min 0 W/m 12,9 km/h (3 Bft) 95,74 %
15.09.2020 02:10 20,6 C 19,4 C 18,9 C 73 % 1021,0 hPa 0,0 l/m 0 min 0 min 0 W/m 16,1 km/h (3 Bft) 97,87 %
15.09.2020 02:12 20,6 C 19,4 C 18,9 C 73 % 1021,0 hPa 0,0 l/m 0 min 0 min 0 W/m 12,9 km/h (3 Bft) 95,74 %
15.09.2020 02:14 20,6 C 19,4 C 18,9 C 74 % 1021,0 hPa 0,0 l/m 0 min 0 min 0 W/m 12,9 km/h (3 Bft) 97,87 %
15.09.2020 02:16 20,6 C 19,4 C 18,9 C 74 % 1020,9 hPa 0,0 l/m 0 min 0 min 0 W/m 6,4 km/h (2 Bft) 97,83 %
15.09.2020 02:18 20,6 C 19,4 C 18,9 C 74 % 1020,9 hPa 0,0 l/m 0 min 0 min 0 W/m 16,1 km/h (3 Bft) 97,87 %
15.09.2020 02:20 20,6 C 19,4 C 18,9 C 74 % 1020,9 hPa 0,0 l/m 0 min 0 min 0 W/m 12,9 km/h (3 Bft) 97,87 %
15.09.2020 02:22 20,6 C 18,9 C 18,9 C 74 % 1020,9 hPa 0,0 l/m 0 min 0 min 0 W/m 12,9 km/h (3 Bft) 95,74 %
15.09.2020 02:24 20,6 C 18,9 C 18,3 C 74 % 1020,9 hPa 0,0 l/m 0 min 0 min 0 W/m 6,4 km/h (2 Bft) 97,87 %
15.09.2020 02:26 20,6 C 18,9 C 18,3 C 74 % 1020,9 hPa 0,0 l/m 0 min 0 min 0 W/m 12,9 km/h (3 Bft) 97,87 %
15.09.2020 02:28 20,6 C 18,9 C 18,3 C 74 % 1020,8 hPa 0,0 l/m 0 min 0 min 0 W/m 12,9 km/h (3 Bft) 97,83 %
15.09.2020 02:30 20,5 C 18,9 C 18,3 C 74 % 1020,8 hPa 0,0 l/m 0 min 0 min 0 W/m 6,4 km/h (2 Bft) 97,87 %
15.09.2020 02:32 20,5 C 18,9 C 18,3 C 74 % 1020,8 hPa 0,0 l/m 0 min 0 min 0 W/m 6,4 km/h (2 Bft) 97,87 %
15.09.2020 02:34 20,5 C 18,9 C 18,3 C 74 % 1020,8 hPa 0,0 l/m 0 min 0 min 0 W/m 6,4 km/h (2 Bft) 97,87 %
15.09.2020 02:36 20,4 C 18,9 C 18,3 C 74 % 1020,8 hPa 0,0 l/m 0 min 0 min 0 W/m 6,4 km/h (2 Bft) 93,62 %
15.09.2020 02:38 20,4 C 18,9 C 18,3 C 74 % 1020,8 hPa 0,0 l/m 0 min 0 min 0 W/m 6,4 km/h (2 Bft) 97,87 %
15.09.2020 02:40 20,4 C 18,9 C 18,3 C 74 % 1020,8 hPa 0,0 l/m 0 min 0 min 0 W/m 6,4 km/h (2 Bft) 97,83 %
15.09.2020 02:42 20,4 C 18,9 C 18,3 C 74 % 1020,7 hPa 0,0 l/m 0 min 0 min 0 W/m 6,4 km/h (2 Bft) 97,87 %
15.09.2020 02:44 20,3 C 18,9 C 18,3 C 74 % 1020,8 hPa 0,0 l/m 0 min 0 min 0 W/m 12,9 km/h (3 Bft) 95,74 %
15.09.2020 02:46 20,3 C 18,9 C 18,3 C 74 % 1020,7 hPa 0,0 l/m 0 min 0 min 0 W/m 6,4 km/h (2 Bft) 97,87 %
15.09.2020 02:48 20,3 C 18,9 C 18,3 C 75 % 1020,7 hPa 0,0 l/m 0 min 0 min 0 W/m 6,4 km/h (2 Bft) 97,87 %
15.09.2020 02:50 20,3 C 18,9 C 18,3 C 75 % 1020,7 hPa 0,0 l/m 0 min 0 min 0 W/m 12,9 km/h (3 Bft) 97,87 %
15.09.2020 02:52 20,3 C 18,9 C 18,3 C 75 % 1020,6 hPa 0,0 l/m 0 min 0 min 0 W/m 9,7 km/h (2 Bft) 97,83 %
15.09.2020 02:54 20,3 C 18,9 C 18,3 C 75 % 1020,6 hPa 0,0 l/m 0 min 0 min 0 W/m 6,4 km/h (2 Bft) 100,00 %
15.09.2020 02:56 20,2 C 18,9 C 18,3 C 75 % 1020,6 hPa 0,0 l/m 0 min 0 min 0 W/m 6,4 km/h (2 Bft) 97,87 %
15.09.2020 02:58 20,2 C 18,9 C 17,8 C 75 % 1020,6 hPa 0,0 l/m 0 min 0 min 0 W/m 6,4 km/h (2 Bft) 97,87 %
15.09.2020 03:00 20,2 C 18,9 C 17,8 C 75 % 1020,6 hPa 0,0 l/m 0 min 0 min 0 W/m 6,4 km/h (2 Bft) 100,00 %
15.09.2020 03:02 20,2 C 18,3 C 17,8 C 75 % 1020,6 hPa 0,0 l/m 0 min 0 min 0 W/m 6,4 km/h (2 Bft) 100,00 %
15.09.2020 03:04 20,1 C 18,3 C 17,8 C 75 % 1020,7 hPa 0,0 l/m 0 min 0 min 0 W/m 6,4 km/h (2 Bft) 100,00 %
15.09.2020 03:06 20,1 C 18,3 C 17,8 C 75 % 1020,6 hPa 0,0 l/m 0 min 0 min 0 W/m 6,4 km/h (2 Bft) 100,00 %
15.09.2020 03:08 20,1 C 18,3 C 17,8 C 75 % 1020,6 hPa 0,0 l/m 0 min 0 min 0 W/m 12,9 km/h (3 Bft) 100,00 %
15.09.2020 03:10 20,1 C 18,3 C 17,8 C 76 % 1020,6 hPa 0,0 l/m 0 min 0 min 0 W/m 12,9 km/h (3 Bft) 100,00 %
15.09.2020 03:12 20,1 C 18,3 C 17,8 C 76 % 1020,6 hPa 0,0 l/m 0 min 0 min 0 W/m 3,2 km/h (1 Bft) 100,00 %
15.09.2020 03:14 20,1 C 18,3 C 17,8 C 76 % 1020,6 hPa 0,0 l/m 0 min 0 min 0 W/m 6,4 km/h (2 Bft) 100,00 %
15.09.2020 03:16 20,0 C 18,3 C 17,2 C 76 % 1020,5 hPa 0,0 l/m 0 min 0 min 0 W/m 3,2 km/h (1 Bft) 97,87 %
15.09.2020 03:18 20,0 C 18,3 C 17,2 C 76 % 1020,6 hPa 0,0 l/m 0 min 0 min 0 W/m 6,4 km/h (2 Bft) 97,87 %
15.09.2020 03:20 19,9 C 18,3 C 17,2 C 76 % 1020,6 hPa 0,0 l/m 0 min 0 min 0 W/m 6,4 km/h (2 Bft) 97,87 %
15.09.2020 03:22 19,9 C 18,3 C 17,2 C 76 % 1020,5 hPa 0,0 l/m 0 min 0 min 0 W/m 6,4 km/h (2 Bft) 97,87 %
15.09.2020 03:24 19,9 C 18,3 C 17,8 C 76 % 1020,5 hPa 0,0 l/m 0 min 0 min 0 W/m 6,4 km/h (2 Bft) 95,74 %
15.09.2020 03:26 19,8 C 18,3 C 17,2 C 76 % 1020,5 hPa 0,0 l/m 0 min 0 min 0 W/m 3,2 km/h (1 Bft) 97,83 %
15.09.2020 03:28 19,8 C 18,3 C 17,2 C 76 % 1020,5 hPa 0,0 l/m 0 min 0 min 0 W/m 6,4 km/h (2 Bft) 97,87 %
15.09.2020 03:30 19,8 C 17,8 C 17,2 C 76 % 1020,5 hPa 0,0 l/m 0 min 0 min 0 W/m 6,4 km/h (2 Bft) 95,74 %
15.09.2020 03:32 19,8 C 18,3 C 17,2 C 76 % 1020,5 hPa 0,0 l/m 0 min 0 min 0 W/m 6,4 km/h (2 Bft) 97,87 %
15.09.2020 03:34 19,8 C 18,3 C 17,2 C 77 % 1020,5 hPa 0,0 l/m 0 min 0 min 0 W/m 6,4 km/h (2 Bft) 97,87 %
15.09.2020 03:36 19,7 C 18,3 C 17,2 C 77 % 1020,5 hPa 0,0 l/m 0 min 0 min 0 W/m 12,9 km/h (3 Bft) 95,74 %
15.09.2020 03:38 19,7 C 18,3 C 17,2 C 77 % 1020,5 hPa 0,0 l/m 0 min 0 min 0 W/m 12,9 km/h (3 Bft) 95,65 %
15.09.2020 03:40 19,7 C 17,8 C 17,2 C 77 % 1020,5 hPa 0,0 l/m 0 min 0 min 0 W/m 0,0 km/h (0 Bft) 95,74 %
15.09.2020 03:42 19,6 C 17,8 C 17,2 C 77 % 1020,5 hPa 0,0 l/m 0 min 0 min 0 W/m 3,2 km/h (1 Bft) 95,74 %
15.09.2020 03:44 19,6 C 17,8 C 17,2 C 77 % 1020,4 hPa 0,0 l/m 0 min 0 min 0 W/m 6,4 km/h (2 Bft) 95,74 %
15.09.2020 03:46 19,6 C 17,8 C 16,7 C 77 % 1020,5 hPa 0,0 l/m 0 min 0 min 0 W/m 6,4 km/h (2 Bft) 95,74 %
15.09.2020 03:48 19,6 C 17,8 C 16,7 C 77 % 1020,5 hPa 0,0 l/m 0 min 0 min 0 W/m 6,4 km/h (2 Bft) 93,62 %
15.09.2020 03:50 19,5 C 17,8 C 16,7 C 77 % 1020,4 hPa 0,0 l/m 0 min 0 min 0 W/m 6,4 km/h (2 Bft) 95,65 %
15.09.2020 03:52 19,4 C 17,8 C 16,7 C 77 % 1020,4 hPa 0,0 l/m 0 min 0 min 0 W/m 6,4 km/h (2 Bft) 95,74 %
15.09.2020 03:54 19,4 C 17,8 C 16,7 C 77 % 1020,4 hPa 0,0 l/m 0 min 0 min 0 W/m 6,4 km/h (2 Bft) 95,74 %
15.09.2020 03:56 19,4 C 17,8 C 16,7 C 78 % 1020,4 hPa 0,0 l/m 0 min 0 min 0 W/m 6,4 km/h (2 Bft) 95,74 %
15.09.2020 03:58 19,4 C 17,2 C 16,7 C 78 % 1020,4 hPa 0,0 l/m 0 min 0 min 0 W/m 3,2 km/h (1 Bft) 95,74 %
15.09.2020 04:00 19,3 C 17,8 C 16,7 C 78 % 1020,4 hPa 0,0 l/m 0 min 0 min 0 W/m 12,9 km/h (3 Bft) 93,62 %
15.09.2020 04:02 19,3 C 17,8 C 16,7 C 78 % 1020,4 hPa 0,0 l/m 0 min 0 min 0 W/m 6,4 km/h (2 Bft) 100,00 %
15.09.2020 04:04 19,3 C 17,8 C 16,7 C 78 % 1020,4 hPa 0,0 l/m 0 min 0 min 0 W/m 6,4 km/h (2 Bft) 97,87 %
15.09.2020 04:06 19,2 C 17,8 C 17,2 C 78 % 1020,4 hPa 0,0 l/m 0 min 0 min 0 W/m 6,4 km/h (2 Bft) 97,87 %
15.09.2020 04:08 19,2 C 17,8 C 17,2 C 78 % 1020,3 hPa 0,0 l/m 0 min 0 min 0 W/m 12,9 km/h (3 Bft) 95,74 %
15.09.2020 04:10 19,2 C 17,2 C 16,7 C 78 % 1020,4 hPa 0,0 l/m 0 min 0 min 0 W/m 6,4 km/h (2 Bft) 95,74 %
15.09.2020 04:12 19,1 C 17,2 C 16,7 C 78 % 1020,4 hPa 0,0 l/m 0 min 0 min 0 W/m 6,4 km/h (2 Bft) 97,87 %
15.09.2020 04:14 19,1 C 17,2 C 16,7 C 78 % 1020,3 hPa 0,0 l/m 0 min 0 min 0 W/m 6,4 km/h (2 Bft) 97,83 %
15.09.2020 04:16 19,1 C 17,2 C 16,7 C 79 % 1020,4 hPa 0,0 l/m 0 min 0 min 0 W/m 6,4 km/h (2 Bft) 97,87 %
15.09.2020 04:18 19,1 C 17,2 C 16,7 C 79 % 1020,3 hPa 0,0 l/m 0 min 0 min 0 W/m 6,4 km/h (2 Bft) 97,87 %
15.09.2020 04:20 19,0 C 17,8 C 17,2 C 79 % 1020,2 hPa 0,0 l/m 0 min 0 min 0 W/m 6,4 km/h (2 Bft) 97,87 %
15.09.2020 04:22 18,9 C 17,2 C 17,2 C 79 % 1020,3 hPa 0,0 l/m 0 min 0 min 0 W/m 9,7 km/h (2 Bft) 97,87 %
15.09.2020 04:24 18,9 C 17,2 C 17,2 C 79 % 1020,3 hPa 0,0 l/m 0 min 0 min 0 W/m 6,4 km/h (2 Bft) 95,65 %
15.09.2020 04:26 18,9 C 17,8 C 17,2 C 79 % 1020,2 hPa 0,0 l/m 0 min 0 min 0 W/m 12,9 km/h (3 Bft) 97,87 %
15.09.2020 04:28 18,9 C 17,2 C 17,2 C 79 % 1020,2 hPa 0,0 l/m 0 min 0 min 0 W/m 6,4 km/h (2 Bft) 97,87 %
15.09.2020 04:30 18,8 C 17,2 C 17,2 C 79 % 1020,1 hPa 0,0 l/m 0 min 0 min 0 W/m 6,4 km/h (2 Bft) 97,87 %
15.09.2020 04:32 18,8 C 17,2 C 16,7 C 80 % 1020,2 hPa 0,0 l/m 0 min 0 min 0 W/m 3,2 km/h (1 Bft) 97,87 %
15.09.2020 04:34 18,8 C 17,2 C 16,7 C 80 % 1020,1 hPa 0,0 l/m 0 min 0 min 0 W/m 6,4 km/h (2 Bft) 97,87 %
15.09.2020 04:36 18,8 C 17,2 C 16,7 C 79 % 1020,2 hPa 0,0 l/m 0 min 0 min 0 W/m 6,4 km/h (2 Bft) 97,83 %
15.09.2020 04:38 18,8 C 17,2 C 16,7 C 80 % 1020,1 hPa 0,0 l/m 0 min 0 min 0 W/m 6,4 km/h (2 Bft) 97,87 %
15.09.2020 04:40 18,7 C 17,2 C 16,7 C 80 % 1020,1 hPa 0,0 l/m 0 min 0 min 0 W/m 6,4 km/h (2 Bft) 100,00 %
15.09.2020 04:42 18,7 C 17,2 C 16,7 C 80 % 1020,1 hPa 0,0 l/m 0 min 0 min 0 W/m 12,9 km/h (3 Bft) 100,00 %
15.09.2020 04:44 18,7 C 17,2 C 16,7 C 80 % 1020,1 hPa 0,0 l/m 0 min 0 min 0 W/m 12,9 km/h (3 Bft) 100,00 %
15.09.2020 04:46 18,7 C 17,2 C 16,7 C 80 % 1020,2 hPa 0,0 l/m 0 min 0 min 0 W/m 12,9 km/h (3 Bft) 100,00 %
15.09.2020 04:48 18,7 C 17,2 C 16,7 C 80 % 1020,2 hPa 0,0 l/m 0 min 0 min 0 W/m 12,9 km/h (3 Bft) 97,83 %
15.09.2020 04:50 18,6 C 17,2 C 16,7 C 80 % 1020,2 hPa 0,0 l/m 0 min 0 min 0 W/m 16,1 km/h (3 Bft) 100,00 %
15.09.2020 04:52 18,6 C 17,2 C 16,7 C 80 % 1020,1 hPa 0,0 l/m 0 min 0 min 0 W/m 12,9 km/h (3 Bft) 100,00 %
15.09.2020 04:54 18,6 C 17,2 C 16,7 C 80 % 1020,2 hPa 0,0 l/m 0 min 0 min 0 W/m 12,9 km/h (3 Bft) 95,74 %
15.09.2020 04:56 18,6 C 17,2 C 16,7 C 80 % 1020,2 hPa 0,0 l/m 0 min 0 min 0 W/m 6,4 km/h (2 Bft) 95,74 %
15.09.2020 04:58 18,6 C 17,2 C 16,7 C 80 % 1020,1 hPa 0,0 l/m 0 min 0 min 0 W/m 6,4 km/h (2 Bft) 95,74 %
15.09.2020 05:00 18,6 C 17,2 C 16,7 C 81 % 1020,1 hPa 0,0 l/m 0 min 0 min 0 W/m 6,4 km/h (2 Bft) 95,65 %
15.09.2020 05:02 18,5 C 17,2 C 16,7 C 81 % 1020,1 hPa 0,0 l/m 0 min 0 min 0 W/m 12,9 km/h (3 Bft) 97,87 %
15.09.2020 05:04 18,5 C 17,2 C 16,7 C 81 % 1020,1 hPa 0,0 l/m 0 min 0 min 0 W/m 6,4 km/h (2 Bft) 97,87 %
15.09.2020 05:06 18,5 C 17,2 C 16,7 C 81 % 1020,1 hPa 0,0 l/m 0 min 0 min 0 W/m 12,9 km/h (3 Bft) 97,87 %
15.09.2020 05:08 18,5 C 17,2 C 16,7 C 81 % 1020,1 hPa 0,0 l/m 0 min 0 min 0 W/m 12,9 km/h (3 Bft) 97,87 %
15.09.2020 05:10 18,4 C 17,2 C 16,7 C 81 % 1020,1 hPa 0,0 l/m 0 min 0 min 0 W/m 12,9 km/h (3 Bft) 97,87 %
15.09.2020 05:12 18,4 C 17,2 C 16,7 C 81 % 1020,0 hPa 0,0 l/m 0 min 0 min 0 W/m 16,1 km/h (3 Bft) 97,83 %
15.09.2020 05:14 18,4 C 17,2 C 16,7 C 81 % 1020,1 hPa 0,0 l/m 0 min 0 min 0 W/m 12,9 km/h (3 Bft) 97,87 %
15.09.2020 05:16 18,4 C 17,2 C 16,7 C 81 % 1020,1 hPa 0,0 l/m 0 min 0 min 0 W/m 6,4 km/h (2 Bft) 97,87 %
15.09.2020 05:18 18,4 C 16,7 C 16,7 C 81 % 1020,1 hPa 0,0 l/m 0 min 0 min 0 W/m 6,4 km/h (2 Bft) 97,87 %
15.09.2020 05:20 18,4 C 16,7 C 16,7 C 81 % 1020,1 hPa 0,0 l/m 0 min 0 min 0 W/m 6,4 km/h (2 Bft) 97,87 %
15.09.2020 05:22 18,4 C 16,7 C 16,7 C 81 % 1020,1 hPa 0,0 l/m 0 min 0 min 0 W/m 12,9 km/h (3 Bft) 97,87 %
15.09.2020 05:24 18,3 C 16,7 C 16,7 C 81 % 1020,1 hPa 0,0 l/m 0 min 0 min 0 W/m 12,9 km/h (3 Bft) 97,83 %
15.09.2020 05:26 18,3 C 16,7 C 16,7 C 81 % 1020,1 hPa 0,0 l/m 0 min 0 min 0 W/m 6,4 km/h (2 Bft) 95,74 %
15.09.2020 05:28 18,3 C 16,7 C 16,7 C 81 % 1020,1 hPa 0,0 l/m 0 min 0 min 0 W/m 16,1 km/h (3 Bft) 97,87 %
15.09.2020 05:30 18,3 C 16,7 C 16,7 C 81 % 1020,1 hPa 0,0 l/m 0 min 0 min 0 W/m 6,4 km/h (2 Bft) 95,74 %
15.09.2020 05:32 18,3 C 16,7 C 16,7 C 81 % 1020,0 hPa 0,0 l/m 0 min 0 min 0 W/m 6,4 km/h (2 Bft) 95,74 %
15.09.2020 05:34 18,3 C 16,7 C 16,7 C 81 % 1020,0 hPa 0,0 l/m 0 min 0 min 0 W/m 6,4 km/h (2 Bft) 97,87 %
15.09.2020 05:36 18,2 C 16,7 C 16,7 C 81 % 1020,1 hPa 0,0 l/m 0 min 0 min 0 W/m 9,7 km/h (2 Bft) 95,65 %
15.09.2020 05:38 18,2 C 16,7 C 16,7 C 82 % 1020,1 hPa 0,0 l/m 0 min 0 min 0 W/m 9,7 km/h (2 Bft) 97,87 %
15.09.2020 05:40 18,2 C 16,7 C 16,7 C 82 % 1020,1 hPa 0,0 l/m 0 min 0 min 0 W/m 6,4 km/h (2 Bft) 97,87 %
15.09.2020 05:42 18,2 C 16,7 C 16,7 C 82 % 1020,1 hPa 0,0 l/m 0 min 0 min 0 W/m 9,7 km/h (2 Bft) 97,87 %
15.09.2020 05:44 18,2 C 16,7 C 16,7 C 82 % 1020,1 hPa 0,0 l/m 0 min 0 min 0 W/m 6,4 km/h (2 Bft) 97,87 %
15.09.2020 05:46 18,2 C 16,7 C 16,7 C 82 % 1020,1 hPa 0,0 l/m 0 min 0 min 0 W/m 12,9 km/h (3 Bft) 97,83 %
15.09.2020 05:48 18,1 C 16,7 C 16,7 C 82 % 1020,0 hPa 0,0 l/m 0 min 0 min 0 W/m 16,1 km/h (3 Bft) 97,87 %
15.09.2020 05:50 18,1 C 16,7 C 16,7 C 82 % 1020,0 hPa 0,0 l/m 0 min 0 min 0 W/m 6,4 km/h (2 Bft) 100,00 %
15.09.2020 05:52 18,1 C 16,7 C 16,7 C 82 % 1020,0 hPa 0,0 l/m 0 min 0 min 0 W/m 6,4 km/h (2 Bft) 100,00 %
15.09.2020 05:54 18,1 C 16,7 C 16,1 C 82 % 1020,0 hPa 0,0 l/m 0 min 0 min 0 W/m 6,4 km/h (2 Bft) 100,00 %
15.09.2020 05:56 18,1 C 16,7 C 16,1 C 82 % 1020,0 hPa 0,0 l/m 0 min 0 min 0 W/m 6,4 km/h (2 Bft) 100,00 %
15.09.2020 05:58 18,1 C 16,7 C 16,1 C 82 % 1020,0 hPa 0,0 l/m 0 min 0 min 0 W/m 12,9 km/h (3 Bft) 100,00 %
15.09.2020 06:00 18,1 C 16,7 C 16,1 C 82 % 1020,0 hPa 0,0 l/m 0 min 0 min 0 W/m 12,9 km/h (3 Bft) 100,00 %
15.09.2020 06:02 18,1 C 16,7 C 16,1 C 82 % 1020,0 hPa 0,0 l/m 0 min 0 min 0 W/m 6,4 km/h (2 Bft) 97,87 %
15.09.2020 06:04 18,0 C 16,7 C 16,1 C 82 % 1020,0 hPa 0,0 l/m 0 min 0 min 0 W/m 6,4 km/h (2 Bft) 100,00 %
15.09.2020 06:08 18,0 C 16,7 C 16,1 C 82 % 1020,0 hPa 0,0 l/m 0 min 0 min 0 W/m 6,4 km/h (2 Bft) 98,94 %
15.09.2020 06:10 18,0 C 16,7 C 16,1 C 82 % 1019,9 hPa 0,0 l/m 0 min 0 min 0 W/m 12,9 km/h (3 Bft) 97,83 %
15.09.2020 06:12 17,9 C 16,7 C 16,1 C 82 % 1020,0 hPa 0,0 l/m 0 min 0 min 0 W/m 6,4 km/h (2 Bft) 97,87 %
15.09.2020 06:14 17,9 C 16,7 C 16,1 C 82 % 1020,0 hPa 0,0 l/m 0 min 0 min 0 W/m 12,9 km/h (3 Bft) 97,87 %
15.09.2020 06:16 17,9 C 16,7 C 16,1 C 82 % 1020,0 hPa 0,0 l/m 0 min 0 min 0 W/m 6,4 km/h (2 Bft) 97,87 %
15.09.2020 06:18 17,9 C 16,7 C 16,1 C 82 % 1020,0 hPa 0,0 l/m 0 min 0 min 0 W/m 6,4 km/h (2 Bft) 97,87 %
15.09.2020 06:20 17,9 C 16,7 C 16,1 C 83 % 1020,0 hPa 0,0 l/m 0 min 0 min 0 W/m 6,4 km/h (2 Bft) 97,87 %
15.09.2020 06:22 17,8 C 16,7 C 16,1 C 83 % 1019,9 hPa 0,0 l/m 0 min 0 min 0 W/m 12,9 km/h (3 Bft) 95,65 %
15.09.2020 06:24 17,8 C 16,7 C 16,1 C 83 % 1019,9 hPa 0,0 l/m 0 min 0 min 0 W/m 6,4 km/h (2 Bft) 97,87 %
15.09.2020 06:26 17,8 C 16,7 C 16,1 C 83 % 1020,0 hPa 0,0 l/m 0 min 0 min 0 W/m 6,4 km/h (2 Bft) 97,87 %
15.09.2020 06:28 17,8 C 16,7 C 16,1 C 83 % 1020,0 hPa 0,0 l/m 0 min 0 min 0 W/m 6,4 km/h (2 Bft) 95,74 %
15.09.2020 06:30 17,8 C 16,7 C 16,1 C 83 % 1019,9 hPa 0,0 l/m 0 min 0 min 0 W/m 12,9 km/h (3 Bft) 95,74 %
15.09.2020 06:32 17,8 C 16,7 C 16,1 C 83 % 1019,9 hPa 0,0 l/m 0 min 0 min 0 W/m 6,4 km/h (2 Bft) 97,87 %
15.09.2020 06:34 17,8 C 16,7 C 16,1 C 83 % 1019,9 hPa 0,0 l/m 0 min 0 min 0 W/m 12,9 km/h (3 Bft) 97,83 %
15.09.2020 06:36 17,8 C 16,7 C 16,1 C 83 % 1019,9 hPa 0,0 l/m 0 min 0 min 0 W/m 6,4 km/h (2 Bft) 97,87 %
15.09.2020 06:38 17,8 C 16,7 C 16,1 C 83 % 1019,9 hPa 0,0 l/m 0 min 0 min 0 W/m 6,4 km/h (2 Bft) 95,74 %
15.09.2020 06:40 17,7 C 16,7 C 16,1 C 83 % 1019,9 hPa 0,0 l/m 0 min 0 min 0 W/m 6,4 km/h (2 Bft) 97,87 %
15.09.2020 06:42 17,7 C 16,7 C 16,1 C 83 % 1019,9 hPa 0,0 l/m 0 min 0 min 0 W/m 6,4 km/h (2 Bft) 97,87 %
15.09.2020 06:44 17,7 C 16,7 C 16,1 C 83 % 1019,9 hPa 0,0 l/m 0 min 0 min 0 W/m 6,4 km/h (2 Bft) 95,65 %
15.09.2020 06:46 17,7 C 16,7 C 16,1 C 83 % 1019,9 hPa 0,0 l/m 0 min 0 min 0 W/m 6,4 km/h (2 Bft) 95,74 %
15.09.2020 06:48 17,7 C 16,1 C 16,1 C 83 % 1019,9 hPa 0,0 l/m 0 min 0 min 0 W/m 6,4 km/h (2 Bft) 95,74 %
15.09.2020 06:50 17,7 C 16,1 C 16,1 C 83 % 1020,0 hPa 0,0 l/m 0 min 0 min 0 W/m 3,2 km/h (1 Bft) 97,87 %
15.09.2020 06:52 17,6 C 16,1 C 16,1 C 83 % 1019,9 hPa 0,0 l/m 0 min 0 min 0 W/m 12,9 km/h (3 Bft) 97,87 %
15.09.2020 06:54 17,6 C 16,1 C 16,1 C 83 % 1020,0 hPa 0,0 l/m 0 min 0 min 0 W/m 6,4 km/h (2 Bft) 97,87 %
15.09.2020 06:56 17,6 C 16,1 C 16,1 C 83 % 1019,9 hPa 0,0 l/m 0 min 0 min 0 W/m 16,1 km/h (3 Bft) 100,00 %
15.09.2020 06:58 17,6 C 16,1 C 16,1 C 83 % 1019,9 hPa 0,0 l/m 0 min 0 min 0 W/m 6,4 km/h (2 Bft) 100,00 %
15.09.2020 07:00 17,6 C 16,1 C 16,1 C 84 % 1019,9 hPa 0,0 l/m 0 min 0 min 0 W/m 9,7 km/h (2 Bft) 100,00 %
15.09.2020 07:02 17,6 C 16,1 C 16,1 C 84 % 1019,9 hPa 0,0 l/m 0 min 0 min 0 W/m 6,4 km/h (2 Bft) 100,00 %
15.09.2020 07:04 17,6 C 16,1 C 16,1 C 84 % 1019,9 hPa 0,0 l/m 0 min 0 min 0 W/m 6,4 km/h (2 Bft) 100,00 %
15.09.2020 07:06 17,6 C 16,1 C 16,1 C 84 % 1020,0 hPa 0,0 l/m 0 min 0 min 0 W/m 12,9 km/h (3 Bft) 100,00 %
15.09.2020 07:08 17,6 C 16,1 C 16,1 C 84 % 1020,0 hPa 0,0 l/m 0 min 0 min 0 W/m 3,2 km/h (1 Bft) 100,00 %
15.09.2020 07:10 17,5 C 16,1 C 15,6 C 84 % 1020,0 hPa 0,0 l/m 0 min 0 min 0 W/m 3,2 km/h (1 Bft) 97,87 %
15.09.2020 07:12 17,5 C 16,1 C 15,6 C 84 % 1020,0 hPa 0,0 l/m 0 min 0 min 0 W/m 12,9 km/h (3 Bft) 100,00 %
15.09.2020 07:14 17,5 C 16,1 C 15,6 C 84 % 1020,0 hPa 0,0 l/m 0 min 0 min 0 W/m 12,9 km/h (3 Bft) 100,00 %
15.09.2020 07:16 17,4 C 16,1 C 15,6 C 84 % 1020,0 hPa 0,0 l/m 0 min 0 min 0 W/m 6,4 km/h (2 Bft) 100,00 %
15.09.2020 07:18 17,4 C 16,1 C 15,6 C 84 % 1020,0 hPa 0,0 l/m 0 min 0 min 0 W/m 12,9 km/h (3 Bft) 100,00 %
15.09.2020 07:20 17,4 C 16,1 C 15,6 C 84 % 1020,0 hPa 0,0 l/m 0 min 0 min 0 W/m 6,4 km/h (2 Bft) 100,00 %
15.09.2020 07:22 17,4 C 16,1 C 15,6 C 84 % 1020,0 hPa 0,0 l/m 0 min 0 min 0 W/m 6,4 km/h (2 Bft) 100,00 %
15.09.2020 07:24 17,4 C 16,1 C 15,6 C 84 % 1020,0 hPa 0,0 l/m 0 min 0 min 4 W/m 6,4 km/h (2 Bft) 97,87 %
15.09.2020 07:26 17,4 C 16,1 C 15,6 C 84 % 1020,0 hPa 0,0 l/m 0 min 0 min 5 W/m 6,4 km/h (2 Bft) 95,74 %
15.09.2020 07:28 17,4 C 16,1 C 15,6 C 84 % 1020,0 hPa 0,0 l/m 0 min 0 min 5 W/m 6,4 km/h (2 Bft) 97,87 %
15.09.2020 07:30 17,3 C 16,1 C 15,6 C 84 % 1020,0 hPa 0,0 l/m 0 min 0 min 5 W/m 12,9 km/h (3 Bft) 97,87 %
15.09.2020 07:32 17,3 C 16,1 C 15,6 C 84 % 1020,0 hPa 0,0 l/m 0 min 0 min 7 W/m 12,9 km/h (3 Bft) 97,83 %
15.09.2020 07:34 17,3 C 16,1 C 16,1 C 84 % 1020,0 hPa 0,0 l/m 0 min 0 min 7 W/m 12,9 km/h (3 Bft) 93,62 %
15.09.2020 07:36 17,3 C 16,1 C 16,1 C 84 % 1020,0 hPa 0,0 l/m 0 min 0 min 9 W/m 6,4 km/h (2 Bft) 97,87 %
15.09.2020 07:38 17,3 C 16,1 C 16,1 C 84 % 1020,0 hPa 0,0 l/m 0 min 0 min 9 W/m 6,4 km/h (2 Bft) 95,74 %
15.09.2020 07:40 17,3 C 16,1 C 16,1 C 85 % 1020,0 hPa 0,0 l/m 0 min 0 min 11 W/m 6,4 km/h (2 Bft) 97,87 %
15.09.2020 07:42 17,3 C 16,1 C 16,1 C 85 % 1020,0 hPa 0,0 l/m 0 min 0 min 12 W/m 12,9 km/h (3 Bft) 95,74 %
15.09.2020 07:44 17,3 C 16,7 C 16,1 C 85 % 1020,0 hPa 0,0 l/m 0 min 0 min 14 W/m 12,9 km/h (3 Bft) 97,83 %
15.09.2020 07:46 17,3 C 16,7 C 16,1 C 85 % 1020,0 hPa 0,0 l/m 0 min 0 min 14 W/m 6,4 km/h (2 Bft) 95,74 %
15.09.2020 07:48 17,3 C 16,7 C 16,1 C 85 % 1020,0 hPa 0,0 l/m 0 min 0 min 16 W/m 12,9 km/h (3 Bft) 95,74 %
15.09.2020 07:50 17,3 C 16,7 C 16,1 C 85 % 1020,0 hPa 0,0 l/m 0 min 0 min 16 W/m 12,9 km/h (3 Bft) 95,74 %
15.09.2020 07:52 17,3 C 16,7 C 16,1 C 85 % 1020,0 hPa 0,0 l/m 0 min 0 min 16 W/m 6,4 km/h (2 Bft) 91,49 %
15.09.2020 07:54 17,3 C 16,7 C 16,1 C 85 % 1020,0 hPa 0,0 l/m 0 min 0 min 14 W/m 9,7 km/h (2 Bft) 95,65 %
15.09.2020 07:56 17,3 C 16,7 C 16,1 C 85 % 1020,0 hPa 0,0 l/m 0 min 0 min 15 W/m 12,9 km/h (3 Bft) 95,74 %
15.09.2020 07:58 17,3 C 16,7 C 16,1 C 85 % 1020,0 hPa 0,0 l/m 0 min 0 min 16 W/m 6,4 km/h (2 Bft) 93,62 %
15.09.2020 08:00 17,3 C 16,7 C 16,1 C 85 % 1020,0 hPa 0,0 l/m 0 min 0 min 16 W/m 16,1 km/h (3 Bft) 95,74 %
15.09.2020 08:02 17,3 C 16,7 C 16,1 C 85 % 1020,0 hPa 0,0 l/m 0 min 0 min 18 W/m 6,4 km/h (2 Bft) 94,44 %
15.09.2020 08:04 17,3 C 16,7 C 16,1 C 85 % 1020,0 hPa 0,0 l/m 0 min 0 min 20 W/m 12,9 km/h (3 Bft) 95,74 %
15.09.2020 08:06 17,3 C 16,7 C 16,1 C 85 % 1020,0 hPa 0,0 l/m 0 min 0 min 21 W/m 6,4 km/h (2 Bft) 95,74 %
15.09.2020 08:08 17,3 C 16,7 C 16,1 C 85 % 1020,0 hPa 0,0 l/m 0 min 0 min 21 W/m 6,4 km/h (2 Bft) 96,55 %
15.09.2020 08:10 17,3 C 16,7 C 16,1 C 85 % 1020,1 hPa 0,0 l/m 0 min 0 min 22 W/m 6,4 km/h (2 Bft) 94,29 %
15.09.2020 08:12 17,3 C 16,7 C 16,1 C 85 % 1020,0 hPa 0,0 l/m 0 min 0 min 25 W/m 12,9 km/h (3 Bft) 95,74 %
15.09.2020 08:14 17,3 C 16,7 C 16,1 C 85 % 1020,0 hPa 0,0 l/m 0 min 0 min 26 W/m 6,4 km/h (2 Bft) 93,62 %
15.09.2020 08:16 17,3 C 16,7 C 16,1 C 85 % 1020,1 hPa 0,0 l/m 0 min 0 min 27 W/m 12,9 km/h (3 Bft) 93,62 %
15.09.2020 08:18 17,3 C 16,7 C 16,1 C 85 % 1020,1 hPa 0,0 l/m 0 min 0 min 30 W/m 16,1 km/h (3 Bft) 95,74 %
15.09.2020 08:20 17,3 C 16,7 C 16,1 C 85 % 1020,1 hPa 0,0 l/m 0 min 0 min 32 W/m 12,9 km/h (3 Bft) 93,48 %
15.09.2020 08:22 17,3 C 16,7 C 16,1 C 85 % 1020,1 hPa 0,0 l/m 0 min 0 min 33 W/m 3,2 km/h (1 Bft) 93,62 %
15.09.2020 08:24 17,3 C 16,7 C 16,1 C 85 % 1020,1 hPa 0,0 l/m 0 min 0 min 34 W/m 6,4 km/h (2 Bft) 97,87 %
15.09.2020 08:26 17,3 C 17,2 C 16,1 C 85 % 1020,1 hPa 0,0 l/m 0 min 0 min 36 W/m 12,9 km/h (3 Bft) 95,74 %
15.09.2020 08:28 17,4 C 17,2 C 16,1 C 85 % 1020,1 hPa 0,0 l/m 0 min 0 min 39 W/m 12,9 km/h (3 Bft) 97,87 %
15.09.2020 08:30 17,4 C 17,2 C 16,7 C 85 % 1020,0 hPa 0,0 l/m 0 min 0 min 39 W/m 16,1 km/h (3 Bft) 100,00 %
15.09.2020 08:32 17,4 C 17,2 C 16,7 C 85 % 1020,0 hPa 0,0 l/m 0 min 0 min 40 W/m 12,9 km/h (3 Bft) 97,87 %
15.09.2020 08:34 17,4 C 17,2 C 16,7 C 85 % 1020,1 hPa 0,0 l/m 0 min 0 min 40 W/m 12,9 km/h (3 Bft) 100,00 %
15.09.2020 08:36 17,4 C 17,2 C 16,7 C 85 % 1020,0 hPa 0,0 l/m 0 min 0 min 40 W/m 12,9 km/h (3 Bft) 97,87 %
15.09.2020 08:38 17,5 C 17,8 C 16,7 C 86 % 1020,1 hPa 0,0 l/m 0 min 0 min 39 W/m 12,9 km/h (3 Bft) 100,00 %
15.09.2020 08:40 17,5 C 17,8 C 16,7 C 85 % 1020,1 hPa 0,0 l/m 0 min 0 min 41 W/m 6,4 km/h (2 Bft) 97,87 %
15.09.2020 08:42 17,6 C 17,8 C 16,7 C 85 % 1020,1 hPa 0,0 l/m 0 min 0 min 44 W/m 12,9 km/h (3 Bft) 100,00 %
15.09.2020 08:44 17,6 C 17,8 C 16,7 C 85 % 1020,1 hPa 0,0 l/m 0 min 0 min 45 W/m 6,4 km/h (2 Bft) 100,00 %
15.09.2020 08:46 17,6 C 17,8 C 16,7 C 85 % 1020,0 hPa 0,0 l/m 0 min 0 min 46 W/m 6,4 km/h (2 Bft) 100,00 %
15.09.2020 08:48 17,7 C 17,8 C 16,7 C 85 % 1020,0 hPa 0,0 l/m 0 min 0 min 47 W/m 12,9 km/h (3 Bft) 100,00 %
15.09.2020 08:50 17,7 C 17,8 C 16,7 C 85 % 1020,0 hPa 0,0 l/m 0 min 0 min 48 W/m 6,4 km/h (2 Bft) 100,00 %
15.09.2020 08:52 17,8 C 18,3 C 16,7 C 85 % 1020,1 hPa 0,0 l/m 0 min 0 min 49 W/m 12,9 km/h (3 Bft) 100,00 %
15.09.2020 08:54 17,8 C 18,3 C 16,7 C 85 % 1020,0 hPa 0,0 l/m 0 min 0 min 49 W/m 12,9 km/h (3 Bft) 97,87 %
15.09.2020 08:56 17,8 C 18,3 C 17,2 C 85 % 1020,0 hPa 0,0 l/m 0 min 0 min 51 W/m 16,1 km/h (3 Bft) 97,83 %
15.09.2020 08:58 17,9 C 18,3 C 17,2 C 85 % 1020,1 hPa 0,0 l/m 0 min 0 min 53 W/m 12,9 km/h (3 Bft) 97,87 %
15.09.2020 09:00 18,0 C 18,3 C 17,2 C 85 % 1020,0 hPa 0,0 l/m 0 min 0 min 54 W/m 6,4 km/h (2 Bft) 97,87 %
15.09.2020 09:02 18,1 C 18,3 C 17,2 C 85 % 1020,0 hPa 0,0 l/m 0 min 0 min 55 W/m 6,4 km/h (2 Bft) 95,74 %
15.09.2020 09:04 18,1 C 18,9 C 17,2 C 85 % 1020,0 hPa 0,0 l/m 0 min 0 min 57 W/m 12,9 km/h (3 Bft) 97,87 %
15.09.2020 09:06 18,2 C 18,9 C 17,8 C 85 % 1020,0 hPa 0,0 l/m 0 min 0 min 58 W/m 12,9 km/h (3 Bft) 97,87 %
15.09.2020 09:08 18,2 C 18,9 C 17,8 C 85 % 1020,0 hPa 0,0 l/m 0 min 0 min 59 W/m 12,9 km/h (3 Bft) 97,83 %
15.09.2020 09:10 18,3 C 18,9 C 17,8 C 85 % 1020,0 hPa 0,0 l/m 0 min 0 min 61 W/m 12,9 km/h (3 Bft) 97,87 %
15.09.2020 09:12 18,3 C 18,9 C 17,8 C 85 % 1020,0 hPa 0,0 l/m 0 min 0 min 62 W/m 6,4 km/h (2 Bft) 97,87 %
15.09.2020 09:14 18,4 C 18,9 C 17,8 C 85 % 1020,0 hPa 0,0 l/m 0 min 0 min 63 W/m 12,9 km/h (3 Bft) 97,87 %
15.09.2020 09:16 18,5 C 18,9 C 17,8 C 85 % 1020,0 hPa 0,0 l/m 0 min 0 min 64 W/m 12,9 km/h (3 Bft) 97,87 %
15.09.2020 09:18 18,6 C 19,4 C 17,8 C 85 % 1020,0 hPa 0,0 l/m 0 min 0 min 66 W/m 19,3 km/h (3 Bft) 95,74 %
15.09.2020 09:20 18,7 C 19,4 C 17,8 C 84 % 1020,0 hPa 0,0 l/m 0 min 0 min 67 W/m 12,9 km/h (3 Bft) 97,83 %
15.09.2020 09:22 18,7 C 19,4 C 18,3 C 84 % 1020,1 hPa 0,0 l/m 0 min 0 min 137 W/m 16,1 km/h (3 Bft) 97,87 %
15.09.2020 09:24 18,8 C 19,4 C 18,3 C 84 % 1020,1 hPa 0,0 l/m 2 min 0 min 256 W/m 12,9 km/h (3 Bft) 97,87 %
15.09.2020 09:26 18,9 C 20,6 C 18,3 C 84 % 1020,1 hPa 0,0 l/m 2 min 0 min 278 W/m 12,9 km/h (3 Bft) 97,87 %
15.09.2020 09:28 18,9 C 22,2 C 18,3 C 84 % 1020,1 hPa 0,0 l/m 2 min 0 min 284 W/m 6,4 km/h (2 Bft) 97,87 %
15.09.2020 09:30 19,1 C 23,3 C 18,3 C 84 % 1020,1 hPa 0,0 l/m 2 min 0 min 289 W/m 12,9 km/h (3 Bft) 97,87 %
15.09.2020 09:32 19,2 C 23,9 C 18,3 C 83 % 1020,1 hPa 0,0 l/m 2 min 0 min 296 W/m 12,9 km/h (3 Bft) 98,00 %
15.09.2020 09:34 19,3 C 24,4 C 18,9 C 83 % 1020,1 hPa 0,0 l/m 2 min 0 min 302 W/m 19,3 km/h (3 Bft) 95,74 %
15.09.2020 09:36 19,4 C 24,4 C 18,9 C 82 % 1020,2 hPa 0,0 l/m 2 min 0 min 308 W/m 12,9 km/h (3 Bft) 97,87 %
15.09.2020 09:38 19,6 C 24,4 C 18,9 C 82 % 1020,2 hPa 0,0 l/m 2 min 0 min 312 W/m 12,9 km/h (3 Bft) 100,00 %
15.09.2020 09:40 19,8 C 25,0 C 18,9 C 81 % 1020,2 hPa 0,0 l/m 2 min 0 min 321 W/m 12,9 km/h (3 Bft) 100,00 %
15.09.2020 09:42 20,0 C 25,6 C 18,9 C 81 % 1020,2 hPa 0,0 l/m 2 min 0 min 325 W/m 12,9 km/h (3 Bft) 100,00 %
15.09.2020 09:44 20,1 C 26,1 C 18,9 C 80 % 1020,2 hPa 0,0 l/m 2 min 0 min 330 W/m 12,9 km/h (3 Bft) 100,00 %
15.09.2020 09:46 20,3 C 26,1 C 19,4 C 79 % 1020,3 hPa 0,0 l/m 2 min 0 min 333 W/m 12,9 km/h (3 Bft) 95,74 %
15.09.2020 09:48 20,4 C 26,1 C 19,4 C 79 % 1020,3 hPa 0,0 l/m 2 min 0 min 339 W/m 12,9 km/h (3 Bft) 100,00 %
15.09.2020 09:50 20,6 C 26,1 C 19,4 C 78 % 1020,3 hPa 0,0 l/m 2 min 0 min 345 W/m 12,9 km/h (3 Bft) 100,00 %
15.09.2020 09:52 20,7 C 26,1 C 23,3 C 78 % 1020,3 hPa 0,0 l/m 2 min 0 min 350 W/m 12,9 km/h (3 Bft) 100,00 %
15.09.2020 09:54 20,9 C 26,7 C 24,4 C 78 % 1020,2 hPa 0,0 l/m 2 min 0 min 356 W/m 6,4 km/h (2 Bft) 100,00 %
15.09.2020 09:56 21,1 C 27,2 C 25,6 C 78 % 1020,3 hPa 0,0 l/m 2 min 0 min 362 W/m 6,4 km/h (2 Bft) 97,87 %
15.09.2020 09:58 21,1 C 27,2 C 26,1 C 77 % 1020,2 hPa 0,0 l/m 2 min 0 min 367 W/m 12,9 km/h (3 Bft) 100,00 %
15.09.2020 10:00 21,3 C 26,7 C 26,1 C 77 % 1020,3 hPa 0,0 l/m 2 min 0 min 374 W/m 12,9 km/h (3 Bft) 100,00 %
15.09.2020 10:02 21,6 C 26,7 C 26,7 C 76 % 1020,2 hPa 0,0 l/m 2 min 0 min 379 W/m 16,1 km/h (3 Bft) 100,00 %
15.09.2020 10:04 21,7 C 27,2 C 27,2 C 75 % 1020,3 hPa 0,0 l/m 2 min 0 min 386 W/m 6,4 km/h (2 Bft) 100,00 %
15.09.2020 10:06 21,9 C 27,2 C 26,7 C 75 % 1020,3 hPa 0,0 l/m 2 min 0 min 394 W/m 19,3 km/h (3 Bft) 100,00 %
15.09.2020 10:08 22,1 C 27,2 C 26,7 C 74 % 1020,3 hPa 0,0 l/m 2 min 0 min 400 W/m 12,9 km/h (3 Bft) 100,00 %
15.09.2020 10:10 22,2 C 27,2 C 26,7 C 74 % 1020,3 hPa 0,0 l/m 2 min 0 min 405 W/m 12,9 km/h (3 Bft) 100,00 %
15.09.2020 10:12 22,4 C 27,8 C 26,1 C 74 % 1020,3 hPa 0,0 l/m 2 min 0 min 410 W/m 12,9 km/h (3 Bft) 100,00 %
15.09.2020 10:14 22,6 C 28,3 C 25,0 C 73 % 1020,3 hPa 0,0 l/m 2 min 0 min 413 W/m 6,4 km/h (2 Bft) 100,00 %
15.09.2020 10:16 22,7 C 27,8 C 23,9 C 72 % 1020,4 hPa 0,0 l/m 2 min 0 min 418 W/m 16,1 km/h (3 Bft) 100,00 %
15.09.2020 10:18 22,8 C 27,8 C 23,3 C 73 % 1020,4 hPa 0,0 l/m 2 min 0 min 424 W/m 16,1 km/h (3 Bft) 100,00 %
15.09.2020 10:20 22,9 C 27,8 C 22,8 C 72 % 1020,4 hPa 0,0 l/m 2 min 0 min 429 W/m 9,7 km/h (2 Bft) 100,00 %
15.09.2020 10:22 23,1 C 28,3 C 22,8 C 71 % 1020,4 hPa 0,0 l/m 2 min 0 min 433 W/m 12,9 km/h (3 Bft) 100,00 %
15.09.2020 10:24 23,2 C 28,3 C 22,2 C 72 % 1020,5 hPa 0,0 l/m 2 min 0 min 439 W/m 6,4 km/h (2 Bft) 100,00 %
15.09.2020 10:26 23,3 C 28,9 C 22,2 C 71 % 1020,5 hPa 0,0 l/m 2 min 0 min 444 W/m 12,9 km/h (3 Bft) 100,00 %
15.09.2020 10:28 23,4 C 28,9 C 22,2 C 71 % 1020,5 hPa 0,0 l/m 2 min 0 min 449 W/m 6,4 km/h (2 Bft) 100,00 %
15.09.2020 10:30 23,5 C 28,9 C 22,2 C 70 % 1020,5 hPa 0,0 l/m 2 min 0 min 454 W/m 16,1 km/h (3 Bft) 100,00 %
15.09.2020 10:32 23,7 C 28,9 C 22,2 C 70 % 1020,5 hPa 0,0 l/m 2 min 0 min 459 W/m 12,9 km/h (3 Bft) 100,00 %
15.09.2020 10:34 23,8 C 29,4 C 22,2 C 70 % 1020,5 hPa 0,0 l/m 2 min 0 min 465 W/m 6,4 km/h (2 Bft) 100,00 %
15.09.2020 10:36 23,9 C 29,4 C 22,2 C 70 % 1020,5 hPa 0,0 l/m 2 min 0 min 471 W/m 6,4 km/h (2 Bft) 100,00 %
15.09.2020 10:38 23,9 C 30,0 C 22,2 C 70 % 1020,5 hPa 0,0 l/m 2 min 0 min 476 W/m 12,9 km/h (3 Bft) 97,83 %
15.09.2020 10:40 24,1 C 30,0 C 22,2 C 69 % 1020,5 hPa 0,0 l/m 2 min 0 min 484 W/m 12,9 km/h (3 Bft) 95,74 %
15.09.2020 10:42 24,2 C 30,0 C 22,2 C 69 % 1020,5 hPa 0,0 l/m 2 min 0 min 489 W/m 12,9 km/h (3 Bft) 97,87 %
15.09.2020 10:44 24,3 C 30,0 C 22,2 C 69 % 1020,5 hPa 0,0 l/m 2 min 0 min 494 W/m 6,4 km/h (2 Bft) 97,87 %
15.09.2020 10:46 24,4 C 29,4 C 22,2 C 68 % 1020,5 hPa 0,0 l/m 2 min 0 min 499 W/m 16,1 km/h (3 Bft) 97,87 %
15.09.2020 10:48 24,5 C 29,4 C 22,2 C 69 % 1020,5 hPa 0,0 l/m 2 min 0 min 504 W/m 12,9 km/h (3 Bft) 95,74 %
15.09.2020 10:50 24,6 C 30,0 C 22,2 C 68 % 1020,5 hPa 0,0 l/m 2 min 0 min 508 W/m 12,9 km/h (3 Bft) 93,48 %
15.09.2020 10:52 24,7 C 30,6 C 22,2 C 68 % 1020,5 hPa 0,0 l/m 2 min 0 min 512 W/m 12,9 km/h (3 Bft) 97,87 %
15.09.2020 10:54 24,8 C 29,4 C 22,8 C 67 % 1020,5 hPa 0,0 l/m 2 min 0 min 515 W/m 12,9 km/h (3 Bft) 97,87 %
15.09.2020 10:56 24,9 C 29,4 C 22,8 C 66 % 1020,5 hPa 0,0 l/m 2 min 0 min 519 W/m 16,1 km/h (3 Bft) 97,87 %
15.09.2020 10:58 25,1 C 30,0 C 22,8 C 66 % 1020,5 hPa 0,0 l/m 2 min 0 min 522 W/m 16,1 km/h (3 Bft) 95,74 %
15.09.2020 11:00 25,2 C 30,6 C 22,8 C 65 % 1020,5 hPa 0,0 l/m 2 min 0 min 527 W/m 12,9 km/h (3 Bft) 97,87 %
15.09.2020 11:02 25,2 C 31,1 C 22,8 C 66 % 1020,5 hPa 0,0 l/m 2 min 0 min 530 W/m 12,9 km/h (3 Bft) 97,83 %
15.09.2020 11:04 25,3 C 30,6 C 22,8 C 65 % 1020,5 hPa 0,0 l/m 2 min 0 min 534 W/m 16,1 km/h (3 Bft) 95,74 %
15.09.2020 11:06 25,4 C 30,0 C 22,8 C 65 % 1020,5 hPa 0,0 l/m 2 min 0 min 536 W/m 12,9 km/h (3 Bft) 95,74 %
15.09.2020 11:08 25,4 C 31,1 C 22,8 C 65 % 1020,5 hPa 0,0 l/m 2 min 0 min 540 W/m 12,9 km/h (3 Bft) 95,74 %
15.09.2020 11:10 25,6 C 31,1 C 23,3 C 65 % 1020,5 hPa 0,0 l/m 2 min 0 min 545 W/m 12,9 km/h (3 Bft) 95,74 %
15.09.2020 11:12 25,6 C 31,7 C 23,3 C 65 % 1020,5 hPa 0,0 l/m 2 min 0 min 550 W/m 12,9 km/h (3 Bft) 95,65 %
15.09.2020 11:14 25,7 C 31,1 C 23,3 C 65 % 1020,5 hPa 0,0 l/m 2 min 0 min 554 W/m 16,1 km/h (3 Bft) 95,74 %
15.09.2020 11:16 25,8 C 30,6 C 23,3 C 64 % 1020,5 hPa 0,0 l/m 2 min 0 min 558 W/m 12,9 km/h (3 Bft) 93,62 %
15.09.2020 11:18 25,9 C 30,6 C 23,3 C 64 % 1020,5 hPa 0,0 l/m 2 min 0 min 563 W/m 16,1 km/h (3 Bft) 95,74 %
15.09.2020 11:20 25,9 C 31,1 C 23,3 C 64 % 1020,5 hPa 0,0 l/m 2 min 0 min 565 W/m 12,9 km/h (3 Bft) 93,62 %
15.09.2020 11:22 26,1 C 31,1 C 23,3 C 64 % 1020,5 hPa 0,0 l/m 2 min 0 min 569 W/m 12,9 km/h (3 Bft) 95,74 %
15.09.2020 11:24 26,1 C 31,1 C 23,3 C 63 % 1020,5 hPa 0,0 l/m 2 min 0 min 572 W/m 12,9 km/h (3 Bft) 95,65 %
15.09.2020 11:26 26,2 C 31,7 C 23,9 C 63 % 1020,5 hPa 0,0 l/m 2 min 0 min 575 W/m 12,9 km/h (3 Bft) 93,62 %
15.09.2020 11:28 26,3 C 32,2 C 23,9 C 63 % 1020,5 hPa 0,0 l/m 2 min 0 min 580 W/m 6,4 km/h (2 Bft) 93,62 %
15.09.2020 11:30 26,3 C 32,8 C 23,9 C 64 % 1020,5 hPa 0,0 l/m 2 min 0 min 583 W/m 12,9 km/h (3 Bft) 93,62 %
15.09.2020 11:32 26,4 C 32,8 C 23,9 C 64 % 1020,4 hPa 0,0 l/m 2 min 0 min 585 W/m 6,4 km/h (2 Bft) 93,62 %
15.09.2020 11:34 26,4 C 33,3 C 23,9 C 63 % 1020,4 hPa 0,0 l/m 2 min 0 min 587 W/m 6,4 km/h (2 Bft) 93,62 %
15.09.2020 11:36 26,6 C 32,8 C 23,9 C 62 % 1020,4 hPa 0,0 l/m 2 min 0 min 590 W/m 12,9 km/h (3 Bft) 91,30 %
15.09.2020 11:38 26,6 C 33,3 C 23,9 C 62 % 1020,4 hPa 0,0 l/m 2 min 0 min 592 W/m 6,4 km/h (2 Bft) 93,62 %
15.09.2020 11:40 26,7 C 33,3 C 23,9 C 63 % 1020,4 hPa 0,0 l/m 2 min 0 min 592 W/m 6,4 km/h (2 Bft) 93,62 %
15.09.2020 11:42 26,8 C 33,9 C 23,9 C 64 % 1020,4 hPa 0,0 l/m 2 min 0 min 598 W/m 6,4 km/h (2 Bft) 95,74 %
15.09.2020 11:44 26,9 C 33,9 C 23,9 C 63 % 1020,4 hPa 0,0 l/m 2 min 0 min 599 W/m 6,4 km/h (2 Bft) 95,74 %
15.09.2020 11:46 27,0 C 33,3 C 24,4 C 62 % 1020,4 hPa 0,0 l/m 2 min 0 min 604 W/m 12,9 km/h (3 Bft) 91,49 %
15.09.2020 11:48 27,1 C 33,3 C 24,4 C 62 % 1020,3 hPa 0,0 l/m 2 min 0 min 607 W/m 6,4 km/h (2 Bft) 93,48 %
15.09.2020 11:50 27,2 C 33,3 C 24,4 C 61 % 1020,3 hPa 0,0 l/m 2 min 0 min 611 W/m 6,4 km/h (2 Bft) 95,74 %
15.09.2020 11:52 27,3 C 33,9 C 24,4 C 61 % 1020,3 hPa 0,0 l/m 2 min 0 min 615 W/m 12,9 km/h (3 Bft) 95,74 %
15.09.2020 11:54 27,4 C 33,9 C 25,0 C 60 % 1020,3 hPa 0,0 l/m 2 min 0 min 618 W/m 12,9 km/h (3 Bft) 93,62 %
15.09.2020 11:56 27,5 C 33,9 C 25,0 C 60 % 1020,3 hPa 0,0 l/m 2 min 0 min 622 W/m 12,9 km/h (3 Bft) 93,62 %
15.09.2020 11:58 27,6 C 33,3 C 25,0 C 60 % 1020,3 hPa 0,0 l/m 2 min 0 min 624 W/m 12,9 km/h (3 Bft) 97,87 %
15.09.2020 12:00 27,7 C 33,9 C 25,0 C 61 % 1020,2 hPa 0,0 l/m 2 min 0 min 629 W/m 12,9 km/h (3 Bft) 95,65 %
15.09.2020 12:02 27,8 C 32,8 C 25,0 C 60 % 1020,2 hPa 0,0 l/m 2 min 0 min 634 W/m 16,1 km/h (3 Bft) 97,87 %
15.09.2020 12:04 27,9 C 33,3 C 25,0 C 61 % 1020,1 hPa 0,0 l/m 2 min 0 min 637 W/m 6,4 km/h (2 Bft) 97,87 %
15.09.2020 12:08 28,1 C 35,0 C 25,0 C 60 % 1020,1 hPa 0,0 l/m 4 min 0 min 643 W/m 12,9 km/h (3 Bft) 98,04 %
15.09.2020 12:10 28,2 C 35,0 C 25,0 C 62 % 1020,1 hPa 0,0 l/m 2 min 0 min 645 W/m 6,4 km/h (2 Bft) 100,00 %
15.09.2020 12:12 28,3 C 35,6 C 25,0 C 63 % 1020,1 hPa 0,0 l/m 2 min 0 min 649 W/m 3,2 km/h (1 Bft) 100,00 %
15.09.2020 12:14 28,4 C 35,0 C 25,0 C 62 % 1020,1 hPa 0,0 l/m 2 min 0 min 649 W/m 12,9 km/h (3 Bft) 100,00 %
15.09.2020 12:16 28,4 C 35,6 C 25,6 C 60 % 1020,1 hPa 0,0 l/m 2 min 0 min 651 W/m 6,4 km/h (2 Bft) 100,00 %
15.09.2020 12:18 28,6 C 35,0 C 25,6 C 59 % 1020,1 hPa 0,0 l/m 2 min 0 min 657 W/m 16,1 km/h (3 Bft) 97,87 %
15.09.2020 12:20 28,7 C 35,0 C 25,6 C 58 % 1020,1 hPa 0,0 l/m 2 min 0 min 660 W/m 12,9 km/h (3 Bft) 97,87 %
15.09.2020 12:22 28,7 C 34,4 C 26,1 C 58 % 1020,1 hPa 0,0 l/m 2 min 0 min 664 W/m 12,9 km/h (3 Bft) 100,00 %
15.09.2020 12:24 28,8 C 35,6 C 25,6 C 59 % 1020,1 hPa 0,0 l/m 2 min 0 min 667 W/m 12,9 km/h (3 Bft) 100,00 %
15.09.2020 12:26 28,9 C 35,0 C 25,6 C 60 % 1020,1 hPa 0,0 l/m 2 min 0 min 669 W/m 12,9 km/h (3 Bft) 97,87 %
15.09.2020 12:28 29,1 C 35,6 C 25,6 C 59 % 1020,1 hPa 0,0 l/m 2 min 0 min 670 W/m 6,4 km/h (2 Bft) 100,00 %
15.09.2020 12:30 29,1 C 35,6 C 25,6 C 58 % 1020,0 hPa 0,0 l/m 2 min 0 min 671 W/m 12,9 km/h (3 Bft) 100,00 %
15.09.2020 12:32 29,2 C 35,0 C 26,1 C 58 % 1020,0 hPa 0,0 l/m 2 min 0 min 671 W/m 12,9 km/h (3 Bft) 100,00 %
15.09.2020 12:34 29,3 C 35,6 C 26,1 C 59 % 1020,0 hPa 0,0 l/m 2 min 0 min 672 W/m 6,4 km/h (2 Bft) 97,37 %
15.09.2020 12:36 29,4 C 36,1 C 25,6 C 59 % 1020,0 hPa 0,0 l/m 2 min 0 min 675 W/m 6,4 km/h (2 Bft) 100,00 %
15.09.2020 12:38 29,6 C 36,1 C 26,1 C 59 % 1019,9 hPa 0,0 l/m 2 min 0 min 676 W/m 6,4 km/h (2 Bft) 100,00 %
15.09.2020 12:40 29,6 C 36,1 C 26,1 C 61 % 1019,9 hPa 0,0 l/m 2 min 0 min 678 W/m 6,4 km/h (2 Bft) 100,00 %
15.09.2020 12:42 29,7 C 36,1 C 26,1 C 60 % 1019,9 hPa 0,0 l/m 2 min 0 min 682 W/m 6,4 km/h (2 Bft) 100,00 %
15.09.2020 12:44 29,8 C 36,7 C 26,1 C 59 % 1019,9 hPa 0,0 l/m 2 min 0 min 686 W/m 12,9 km/h (3 Bft) 100,00 %
15.09.2020 12:46 29,9 C 35,6 C 26,7 C 58 % 1019,9 hPa 0,0 l/m 2 min 0 min 685 W/m 12,9 km/h (3 Bft) 97,83 %
15.09.2020 12:48 29,9 C 35,6 C 26,7 C 57 % 1019,8 hPa 0,0 l/m 2 min 0 min 685 W/m 12,9 km/h (3 Bft) 100,00 %
15.09.2020 12:50 30,0 C 35,6 C 26,7 C 57 % 1019,8 hPa 0,0 l/m 2 min 0 min 686 W/m 12,9 km/h (3 Bft) 100,00 %
15.09.2020 12:52 30,1 C 35,0 C 26,7 C 57 % 1019,9 hPa 0,0 l/m 2 min 0 min 686 W/m 16,1 km/h (3 Bft) 100,00 %
15.09.2020 12:54 30,1 C 35,0 C 26,7 C 58 % 1019,8 hPa 0,0 l/m 2 min 0 min 686 W/m 12,9 km/h (3 Bft) 100,00 %
15.09.2020 12:56 30,1 C 35,6 C 27,2 C 58 % 1019,8 hPa 0,0 l/m 2 min 0 min 688 W/m 6,4 km/h (2 Bft) 100,00 %
15.09.2020 12:58 30,2 C 36,1 C 27,2 C 58 % 1019,8 hPa 0,0 l/m 2 min 0 min 689 W/m 6,4 km/h (2 Bft) 100,00 %
15.09.2020 13:00 30,3 C 36,7 C 27,2 C 59 % 1019,8 hPa 0,0 l/m 2 min 0 min 692 W/m 6,4 km/h (2 Bft) 100,00 %
15.09.2020 13:02 30,3 C 37,2 C 26,7 C 58 % 1019,8 hPa 0,0 l/m 2 min 0 min 693 W/m 3,2 km/h (1 Bft) 100,00 %
15.09.2020 13:04 30,4 C 37,2 C 26,7 C 60 % 1019,8 hPa 0,0 l/m 2 min 0 min 693 W/m 3,2 km/h (1 Bft) 100,00 %
15.09.2020 13:06 30,5 C 36,7 C 26,7 C 57 % 1019,8 hPa 0,0 l/m 2 min 0 min 695 W/m 12,9 km/h (3 Bft) 100,00 %
15.09.2020 13:08 30,6 C 36,7 C 27,2 C 58 % 1019,7 hPa 0,0 l/m 2 min 0 min 697 W/m 3,2 km/h (1 Bft) 100,00 %
15.09.2020 13:10 30,7 C 37,2 C 27,2 C 58 % 1019,7 hPa 0,0 l/m 2 min 0 min 697 W/m 3,2 km/h (1 Bft) 97,83 %
15.09.2020 13:12 30,8 C 37,2 C 27,2 C 60 % 1019,7 hPa 0,0 l/m 2 min 0 min 695 W/m 6,4 km/h (2 Bft) 97,87 %
15.09.2020 13:14 30,8 C 37,2 C 27,8 C 57 % 1019,7 hPa 0,0 l/m 2 min 0 min 697 W/m 6,4 km/h (2 Bft) 100,00 %
15.09.2020 13:16 30,9 C 37,2 C 27,2 C 57 % 1019,7 hPa 0,0 l/m 2 min 0 min 700 W/m 3,2 km/h (1 Bft) 100,00 %
15.09.2020 13:18 31,0 C 37,2 C 27,8 C 56 % 1019,7 hPa 0,0 l/m 2 min 0 min 698 W/m 6,4 km/h (2 Bft) 97,87 %
15.09.2020 13:20 31,1 C 37,2 C 27,8 C 56 % 1019,7 hPa 0,0 l/m 2 min 0 min 696 W/m 6,4 km/h (2 Bft) 100,00 %
15.09.2020 13:22 31,1 C 37,2 C 27,8 C 59 % 1019,6 hPa 0,0 l/m 2 min 0 min 695 W/m 6,4 km/h (2 Bft) 100,00 %
15.09.2020 13:24 31,2 C 37,2 C 27,2 C 56 % 1019,5 hPa 0,0 l/m 2 min 0 min 697 W/m 6,4 km/h (2 Bft) 95,74 %
15.09.2020 13:26 31,3 C 37,8 C 27,2 C 55 % 1019,6 hPa 0,0 l/m 2 min 0 min 699 W/m 3,2 km/h (1 Bft) 100,00 %
15.09.2020 13:28 31,3 C 37,8 C 27,2 C 55 % 1019,5 hPa 0,0 l/m 2 min 0 min 700 W/m 12,9 km/h (3 Bft) 100,00 %
15.09.2020 13:30 31,4 C 37,2 C 27,8 C 54 % 1019,5 hPa 0,0 l/m 2 min 0 min 701 W/m 6,4 km/h (2 Bft) 100,00 %
15.09.2020 13:32 31,4 C 37,8 C 27,8 C 53 % 1019,5 hPa 0,0 l/m 2 min 0 min 700 W/m 6,4 km/h (2 Bft) 97,83 %
15.09.2020 13:34 31,6 C 37,8 C 27,8 C 57 % 1019,5 hPa 0,0 l/m 2 min 0 min 700 W/m 6,4 km/h (2 Bft) 97,87 %
15.09.2020 13:36 31,6 C 37,8 C 27,8 C 54 % 1019,5 hPa 0,0 l/m 2 min 0 min 700 W/m 6,4 km/h (2 Bft) 97,87 %
15.09.2020 13:38 31,6 C 37,8 C 27,8 C 51 % 1019,4 hPa 0,0 l/m 2 min 0 min 698 W/m 6,4 km/h (2 Bft) 97,87 %
15.09.2020 13:40 31,7 C 38,3 C 27,8 C 54 % 1019,5 hPa 0,0 l/m 2 min 0 min 697 W/m 3,2 km/h (1 Bft) 97,87 %
15.09.2020 13:42 31,8 C 37,8 C 28,3 C 52 % 1019,4 hPa 0,0 l/m 2 min 0 min 698 W/m 12,9 km/h (3 Bft) 97,87 %
15.09.2020 13:44 31,8 C 37,2 C 28,3 C 51 % 1019,4 hPa 0,0 l/m 2 min 0 min 699 W/m 16,1 km/h (3 Bft) 97,83 %
15.09.2020 13:46 31,9 C 37,8 C 27,8 C 57 % 1019,4 hPa 0,0 l/m 2 min 0 min 698 W/m 3,2 km/h (1 Bft) 97,87 %
15.09.2020 13:48 32,0 C 37,8 C 28,3 C 55 % 1019,3 hPa 0,0 l/m 2 min 0 min 699 W/m 6,4 km/h (2 Bft) 97,87 %
15.09.2020 13:50 32,1 C 37,8 C 28,3 C 51 % 1019,4 hPa 0,0 l/m 2 min 0 min 699 W/m 12,9 km/h (3 Bft) 95,74 %
15.09.2020 13:52 32,1 C 37,2 C 28,9 C 51 % 1019,3 hPa 0,0 l/m 2 min 0 min 699 W/m 6,4 km/h (2 Bft) 95,74 %
15.09.2020 13:54 32,1 C 37,8 C 30,6 C 51 % 1019,3 hPa 0,0 l/m 2 min 0 min 698 W/m 6,4 km/h (2 Bft) 97,87 %
15.09.2020 13:56 32,1 C 37,8 C 31,7 C 52 % 1019,3 hPa 0,0 l/m 2 min 0 min 697 W/m 6,4 km/h (2 Bft) 95,65 %
15.09.2020 13:58 32,2 C 38,3 C 32,2 C 53 % 1019,3 hPa 0,0 l/m 2 min 0 min 700 W/m 6,4 km/h (2 Bft) 97,87 %
15.09.2020 14:00 32,2 C 37,8 C 32,2 C 51 % 1019,3 hPa 0,0 l/m 2 min 0 min 702 W/m 6,4 km/h (2 Bft) 97,87 %
15.09.2020 14:02 32,3 C 37,8 C 31,7 C 49 % 1019,2 hPa 0,0 l/m 2 min 0 min 701 W/m 6,4 km/h (2 Bft) 95,74 %
15.09.2020 14:04 32,3 C 38,3 C 30,6 C 49 % 1019,3 hPa 0,0 l/m 2 min 0 min 701 W/m 12,9 km/h (3 Bft) 100,00 %
15.09.2020 14:06 32,3 C 38,3 C 30,0 C 49 % 1019,2 hPa 0,0 l/m 2 min 0 min 699 W/m 6,4 km/h (2 Bft) 100,00 %
15.09.2020 14:08 32,4 C 37,8 C 29,4 C 50 % 1019,2 hPa 0,0 l/m 2 min 0 min 697 W/m 12,9 km/h (3 Bft) 97,83 %
15.09.2020 14:10 32,4 C 38,3 C 29,4 C 50 % 1019,2 hPa 0,0 l/m 2 min 0 min 696 W/m 6,4 km/h (2 Bft) 97,87 %
15.09.2020 14:12 32,5 C 38,3 C 29,4 C 51 % 1019,2 hPa 0,0 l/m 2 min 0 min 696 W/m 6,4 km/h (2 Bft) 100,00 %
15.09.2020 14:14 32,6 C 37,8 C 29,4 C 53 % 1019,2 hPa 0,0 l/m 2 min 0 min 694 W/m 6,4 km/h (2 Bft) 100,00 %
15.09.2020 14:16 32,6 C 37,2 C 28,9 C 51 % 1019,1 hPa 0,0 l/m 2 min 0 min 693 W/m 3,2 km/h (1 Bft) 100,00 %
15.09.2020 14:18 32,6 C 37,8 C 28,9 C 52 % 1019,1 hPa 0,0 l/m 2 min 0 min 691 W/m 3,2 km/h (1 Bft) 97,87 %
15.09.2020 14:20 32,7 C 37,8 C 28,9 C 50 % 1019,1 hPa 0,0 l/m 2 min 0 min 691 W/m 6,4 km/h (2 Bft) 97,83 %
15.09.2020 14:22 32,7 C 37,8 C 29,4 C 51 % 1019,1 hPa 0,0 l/m 2 min 0 min 689 W/m 6,4 km/h (2 Bft) 97,87 %
15.09.2020 14:24 32,8 C 38,9 C 28,9 C 51 % 1019,1 hPa 0,0 l/m 2 min 0 min 690 W/m 3,2 km/h (1 Bft) 97,87 %
15.09.2020 14:26 32,8 C 38,9 C 28,9 C 52 % 1019,1 hPa 0,0 l/m 2 min 0 min 689 W/m 3,2 km/h (1 Bft) 97,87 %
15.09.2020 14:28 32,9 C 39,4 C 28,3 C 51 % 1019,0 hPa 0,0 l/m 2 min 0 min 688 W/m 3,2 km/h (1 Bft) 97,87 %
15.09.2020 14:30 32,9 C 38,9 C 28,9 C 53 % 1019,0 hPa 0,0 l/m 2 min 0 min 687 W/m 9,7 km/h (2 Bft) 95,74 %
15.09.2020 14:32 32,9 C 37,8 C 28,9 C 49 % 1019,0 hPa 0,0 l/m 2 min 0 min 684 W/m 12,9 km/h (3 Bft) 97,83 %
15.09.2020 14:34 33,0 C 37,8 C 29,4 C 49 % 1019,0 hPa 0,0 l/m 2 min 0 min 680 W/m 6,4 km/h (2 Bft) 97,87 %
15.09.2020 14:36 33,0 C 37,2 C 30,0 C 49 % 1019,0 hPa 0,0 l/m 2 min 0 min 676 W/m 12,9 km/h (3 Bft) 97,87 %
15.09.2020 14:38 33,1 C 37,8 C 30,0 C 49 % 1019,0 hPa 0,0 l/m 2 min 0 min 672 W/m 6,4 km/h (2 Bft) 97,87 %
15.09.2020 14:40 33,1 C 37,2 C 30,0 C 48 % 1019,0 hPa 0,0 l/m 2 min 0 min 670 W/m 12,9 km/h (3 Bft) 97,87 %
15.09.2020 14:42 33,1 C 37,8 C 30,0 C 49 % 1018,9 hPa 0,0 l/m 2 min 0 min 671 W/m 12,9 km/h (3 Bft) 97,83 %
15.09.2020 14:44 33,1 C 37,8 C 30,0 C 50 % 1018,9 hPa 0,0 l/m 2 min 0 min 668 W/m 6,4 km/h (2 Bft) 97,87 %
15.09.2020 14:46 33,1 C 38,3 C 30,0 C 50 % 1018,9 hPa 0,0 l/m 2 min 0 min 664 W/m 6,4 km/h (2 Bft) 95,74 %
15.09.2020 14:48 33,1 C 37,8 C 30,0 C 48 % 1018,9 hPa 0,0 l/m 2 min 0 min 661 W/m 6,4 km/h (2 Bft) 95,74 %
15.09.2020 14:50 33,1 C 38,9 C 30,0 C 49 % 1018,9 hPa 0,0 l/m 2 min 0 min 657 W/m 6,4 km/h (2 Bft) 97,87 %
15.09.2020 14:52 33,2 C 38,3 C 30,0 C 48 % 1018,9 hPa 0,0 l/m 2 min 0 min 648 W/m 6,4 km/h (2 Bft) 95,74 %
15.09.2020 14:54 33,2 C 38,3 C 30,0 C 50 % 1018,8 hPa 0,0 l/m 2 min 0 min 648 W/m 6,4 km/h (2 Bft) 97,83 %
15.09.2020 14:56 33,2 C 37,8 C 30,6 C 48 % 1018,9 hPa 0,0 l/m 2 min 0 min 652 W/m 6,4 km/h (2 Bft) 97,87 %
15.09.2020 14:58 33,2 C 37,8 C 30,6 C 48 % 1018,8 hPa 0,0 l/m 2 min 0 min 648 W/m 6,4 km/h (2 Bft) 97,87 %
15.09.2020 15:00 33,2 C 38,3 C 30,6 C 49 % 1018,8 hPa 0,0 l/m 2 min 0 min 648 W/m 3,2 km/h (1 Bft) 97,87 %
15.09.2020 15:02 33,3 C 38,3 C 30,0 C 51 % 1018,7 hPa 0,0 l/m 2 min 0 min 644 W/m 6,4 km/h (2 Bft) 97,87 %
15.09.2020 15:04 33,3 C 37,8 C 30,6 C 47 % 1018,7 hPa 0,0 l/m 2 min 0 min 643 W/m 12,9 km/h (3 Bft) 97,87 %
15.09.2020 15:06 33,3 C 37,8 C 30,6 C 46 % 1018,7 hPa 0,0 l/m 2 min 0 min 643 W/m 6,4 km/h (2 Bft) 95,65 %
15.09.2020 15:08 33,3 C 37,8 C 30,6 C 47 % 1018,7 hPa 0,0 l/m 2 min 0 min 641 W/m 6,4 km/h (2 Bft) 95,74 %
15.09.2020 15:10 33,3 C 37,8 C 30,6 C 45 % 1018,7 hPa 0,0 l/m 2 min 0 min 636 W/m 12,9 km/h (3 Bft) 97,87 %
15.09.2020 15:12 33,4 C 38,9 C 30,0 C 46 % 1018,6 hPa 0,0 l/m 2 min 0 min 632 W/m 3,2 km/h (1 Bft) 95,74 %
15.09.2020 15:14 33,4 C 38,9 C 30,0 C 51 % 1018,6 hPa 0,0 l/m 2 min 0 min 635 W/m 3,2 km/h (1 Bft) 95,74 %
15.09.2020 15:16 33,5 C 38,9 C 30,0 C 50 % 1018,6 hPa 0,0 l/m 2 min 0 min 634 W/m 12,9 km/h (3 Bft) 93,48 %
15.09.2020 15:18 33,6 C 38,9 C 30,0 C 47 % 1018,6 hPa 0,0 l/m 2 min 0 min 634 W/m 6,4 km/h (2 Bft) 95,74 %
15.09.2020 15:20 33,6 C 38,9 C 30,0 C 47 % 1018,6 hPa 0,0 l/m 2 min 0 min 630 W/m 6,4 km/h (2 Bft) 97,87 %
15.09.2020 15:22 33,7 C 38,9 C 29,4 C 52 % 1018,6 hPa 0,0 l/m 2 min 0 min 626 W/m 3,2 km/h (1 Bft) 97,87 %
15.09.2020 15:24 33,7 C 38,9 C 30,0 C 46 % 1018,6 hPa 0,0 l/m 2 min 0 min 624 W/m 6,4 km/h (2 Bft) 95,74 %
15.09.2020 15:26 33,7 C 38,3 C 30,6 C 44 % 1018,5 hPa 0,0 l/m 2 min 0 min 623 W/m 6,4 km/h (2 Bft) 97,87 %
15.09.2020 15:28 33,7 C 38,3 C 30,0 C 47 % 1018,5 hPa 0,0 l/m 2 min 0 min 624 W/m 3,2 km/h (1 Bft) 97,83 %
15.09.2020 15:30 33,8 C 38,9 C 30,0 C 45 % 1018,6 hPa 0,0 l/m 2 min 0 min 619 W/m 12,9 km/h (3 Bft) 97,87 %
15.09.2020 15:32 33,8 C 38,3 C 30,6 C 42 % 1018,5 hPa 0,0 l/m 2 min 0 min 616 W/m 12,9 km/h (3 Bft) 95,74 %
15.09.2020 15:34 33,8 C 38,9 C 30,0 C 46 % 1018,6 hPa 0,0 l/m 2 min 0 min 617 W/m 6,4 km/h (2 Bft) 93,62 %
15.09.2020 15:36 33,8 C 38,3 C 30,0 C 44 % 1018,5 hPa 0,0 l/m 2 min 0 min 615 W/m 6,4 km/h (2 Bft) 92,45 %
15.09.2020 15:38 33,9 C 38,9 C 30,0 C 48 % 1018,5 hPa 0,0 l/m 2 min 0 min 611 W/m 6,4 km/h (2 Bft) 95,74 %
15.09.2020 15:40 33,9 C 38,9 C 30,0 C 49 % 1018,5 hPa 0,0 l/m 2 min 0 min 608 W/m 6,4 km/h (2 Bft) 93,62 %
15.09.2020 15:42 34,0 C 38,9 C 29,4 C 47 % 1018,5 hPa 0,0 l/m 2 min 0 min 602 W/m 6,4 km/h (2 Bft) 95,65 %
15.09.2020 15:44 34,1 C 38,9 C 29,4 C 48 % 1018,4 hPa 0,0 l/m 2 min 0 min 597 W/m 3,2 km/h (1 Bft) 95,74 %
15.09.2020 15:46 34,1 C 38,9 C 29,4 C 47 % 1018,4 hPa 0,0 l/m 2 min 0 min 596 W/m 3,2 km/h (1 Bft) 95,74 %
15.09.2020 15:48 34,1 C 38,3 C 29,4 C 46 % 1018,4 hPa 0,0 l/m 2 min 0 min 591 W/m 6,4 km/h (2 Bft) 95,74 %
15.09.2020 15:50 34,2 C 38,9 C 29,4 C 43 % 1018,4 hPa 0,0 l/m 2 min 0 min 586 W/m 6,4 km/h (2 Bft) 95,74 %
15.09.2020 15:52 34,2 C 39,4 C 29,4 C 43 % 1018,3 hPa 0,0 l/m 2 min 0 min 580 W/m 6,4 km/h (2 Bft) 95,65 %
15.09.2020 15:54 34,2 C 37,8 C 29,4 C 43 % 1018,4 hPa 0,0 l/m 2 min 0 min 576 W/m 12,9 km/h (3 Bft) 95,74 %
15.09.2020 15:56 34,3 C 38,3 C 30,0 C 48 % 1018,3 hPa 0,0 l/m 2 min 0 min 573 W/m 6,4 km/h (2 Bft) 93,62 %
15.09.2020 15:58 34,3 C 38,3 C 29,4 C 46 % 1018,3 hPa 0,0 l/m 2 min 0 min 569 W/m 3,2 km/h (1 Bft) 95,74 %
15.09.2020 16:00 34,4 C 38,3 C 29,4 C 48 % 1018,3 hPa 0,0 l/m 2 min 0 min 566 W/m 3,2 km/h (1 Bft) 93,62 %
15.09.2020 16:02 34,4 C 38,3 C 29,4 C 45 % 1018,3 hPa 0,0 l/m 2 min 0 min 561 W/m 6,4 km/h (2 Bft) 95,74 %
15.09.2020 16:04 34,4 C 38,3 C 29,4 C 45 % 1018,2 hPa 0,0 l/m 2 min 0 min 554 W/m 6,4 km/h (2 Bft) 95,65 %
15.09.2020 16:06 34,4 C 37,8 C 29,4 C 44 % 1018,3 hPa 0,0 l/m 2 min 0 min 550 W/m 12,9 km/h (3 Bft) 95,74 %
15.09.2020 16:08 34,4 C 38,3 C 30,0 C 42 % 1018,3 hPa 0,0 l/m 2 min 0 min 546 W/m 3,2 km/h (1 Bft) 95,74 %
15.09.2020 16:10 34,5 C 38,3 C 30,0 C 48 % 1018,2 hPa 0,0 l/m 2 min 0 min 539 W/m 3,2 km/h (1 Bft) 97,87 %
15.09.2020 16:12 34,5 C 37,8 C 30,0 C 48 % 1018,2 hPa 0,0 l/m 2 min 0 min 534 W/m 3,2 km/h (1 Bft) 97,87 %
15.09.2020 16:14 34,6 C 38,3 C 30,0 C 48 % 1018,2 hPa 0,0 l/m 2 min 0 min 527 W/m 3,2 km/h (1 Bft) 97,87 %
15.09.2020 16:16 34,5 C 38,3 C 30,0 C 44 % 1018,2 hPa 0,0 l/m 2 min 0 min 521 W/m 0,0 km/h (0 Bft) 97,83 %
15.09.2020 16:18 34,5 C 38,9 C 30,0 C 44 % 1018,1 hPa 0,0 l/m 2 min 0 min 519 W/m 0,0 km/h (0 Bft) 95,74 %
15.09.2020 16:20 34,6 C 38,9 C 30,6 C 46 % 1018,1 hPa 0,0 l/m 2 min 0 min 516 W/m 3,2 km/h (1 Bft) 97,87 %
15.09.2020 16:22 34,6 C 37,8 C 32,2 C 46 % 1018,1 hPa 0,0 l/m 2 min 0 min 512 W/m 3,2 km/h (1 Bft) 95,74 %
15.09.2020 16:24 34,6 C 38,3 C 33,3 C 49 % 1018,0 hPa 0,0 l/m 2 min 0 min 507 W/m 3,2 km/h (1 Bft) 97,87 %
15.09.2020 16:26 34,6 C 38,3 C 33,3 C 45 % 1018,0 hPa 0,0 l/m 2 min 0 min 501 W/m 6,4 km/h (2 Bft) 97,87 %
15.09.2020 16:28 34,6 C 38,3 C 32,8 C 42 % 1018,0 hPa 0,0 l/m 2 min 0 min 496 W/m 3,2 km/h (1 Bft) 97,83 %
15.09.2020 16:30 34,7 C 37,8 C 31,7 C 46 % 1018,0 hPa 0,0 l/m 2 min 0 min 492 W/m 3,2 km/h (1 Bft) 97,87 %
15.09.2020 16:32 34,7 C 37,8 C 31,1 C 48 % 1018,0 hPa 0,0 l/m 2 min 0 min 488 W/m 0,0 km/h (0 Bft) 97,87 %
15.09.2020 16:34 34,7 C 37,8 C 31,1 C 48 % 1017,9 hPa 0,0 l/m 2 min 0 min 484 W/m 0,0 km/h (0 Bft) 97,87 %
15.09.2020 16:36 34,7 C 37,8 C 31,1 C 47 % 1017,9 hPa 0,0 l/m 2 min 0 min 481 W/m 0,0 km/h (0 Bft) 97,87 %
15.09.2020 16:38 34,7 C 37,8 C 31,1 C 46 % 1017,9 hPa 0,0 l/m 2 min 0 min 478 W/m 0,0 km/h (0 Bft) 97,87 %
15.09.2020 16:40 34,7 C 37,8 C 32,2 C 48 % 1017,9 hPa 0,0 l/m 2 min 0 min 472 W/m 3,2 km/h (1 Bft) 95,65 %
15.09.2020 16:42 34,7 C 37,8 C 33,9 C 48 % 1017,9 hPa 0,0 l/m 2 min 0 min 467 W/m 3,2 km/h (1 Bft) 95,74 %
15.09.2020 16:44 34,7 C 37,8 C 35,0 C 48 % 1018,0 hPa 0,0 l/m 2 min 0 min 461 W/m 0,0 km/h (0 Bft) 97,87 %
15.09.2020 16:46 34,7 C 37,8 C 35,0 C 44 % 1017,9 hPa 0,0 l/m 2 min 0 min 455 W/m 3,2 km/h (1 Bft) 97,87 %
15.09.2020 16:48 34,7 C 37,2 C 34,4 C 46 % 1017,9 hPa 0,0 l/m 2 min 0 min 450 W/m 0,0 km/h (0 Bft) 97,87 %
15.09.2020 16:50 34,7 C 37,2 C 33,9 C 48 % 1017,9 hPa 0,0 l/m 2 min 0 min 442 W/m 0,0 km/h (0 Bft) 97,87 %
15.09.2020 16:52 34,7 C 37,8 C 33,3 C 46 % 1017,9 hPa 0,0 l/m 2 min 0 min 437 W/m 3,2 km/h (1 Bft) 97,83 %
15.09.2020 16:54 34,7 C 37,2 C 32,8 C 45 % 1017,9 hPa 0,0 l/m 2 min 0 min 431 W/m 0,0 km/h (0 Bft) 97,87 %
15.09.2020 16:56 34,7 C 37,8 C 32,2 C 43 % 1017,9 hPa 0,0 l/m 2 min 0 min 427 W/m 0,0 km/h (0 Bft) 97,87 %
15.09.2020 16:58 34,7 C 37,8 C 32,2 C 43 % 1017,9 hPa 0,0 l/m 2 min 0 min 424 W/m 3,2 km/h (1 Bft) 97,87 %
15.09.2020 17:00 34,8 C 37,8 C 32,8 C 46 % 1017,8 hPa 0,0 l/m 2 min 0 min 419 W/m 0,0 km/h (0 Bft) 97,87 %
15.09.2020 17:02 34,8 C 37,2 C 32,2 C 42 % 1017,8 hPa 0,0 l/m 2 min 0 min 413 W/m 3,2 km/h (1 Bft) 97,87 %
15.09.2020 17:04 34,8 C 37,2 C 31,1 C 44 % 1017,8 hPa 0,0 l/m 2 min 0 min 409 W/m 0,0 km/h (0 Bft) 97,83 %
15.09.2020 17:06 34,8 C 37,2 C 30,0 C 46 % 1017,8 hPa 0,0 l/m 2 min 0 min 404 W/m 0,0 km/h (0 Bft) 95,74 %
15.09.2020 17:08 34,8 C 37,2 C 30,0 C 44 % 1017,8 hPa 0,0 l/m 2 min 0 min 398 W/m 3,2 km/h (1 Bft) 97,87 %
15.09.2020 17:10 34,9 C 36,7 C 29,4 C 45 % 1017,8 hPa 0,0 l/m 2 min 0 min 393 W/m 3,2 km/h (1 Bft) 97,87 %
15.09.2020 17:12 34,9 C 36,7 C 28,3 C 47 % 1017,8 hPa 0,0 l/m 2 min 0 min 388 W/m 3,2 km/h (1 Bft) 97,87 %
15.09.2020 17:14 34,9 C 36,7 C 28,3 C 46 % 1017,8 hPa 0,0 l/m 2 min 0 min 387 W/m 0,0 km/h (0 Bft) 97,83 %
15.09.2020 17:16 34,8 C 37,2 C 27,8 C 44 % 1017,8 hPa 0,0 l/m 2 min 0 min 383 W/m 0,0 km/h (0 Bft) 97,87 %
15.09.2020 17:18 34,8 C 36,7 C 27,8 C 46 % 1017,8 hPa 0,0 l/m 2 min 0 min 378 W/m 6,4 km/h (2 Bft) 97,87 %
15.09.2020 17:20 34,7 C 36,1 C 27,2 C 45 % 1017,8 hPa 0,0 l/m 2 min 0 min 371 W/m 0,0 km/h (0 Bft) 97,87 %
15.09.2020 17:22 34,7 C 35,6 C 27,2 C 46 % 1017,8 hPa 0,0 l/m 2 min 0 min 365 W/m 0,0 km/h (0 Bft) 97,87 %
15.09.2020 17:24 34,6 C 35,6 C 27,2 C 46 % 1017,7 hPa 0,0 l/m 2 min 0 min 359 W/m 0,0 km/h (0 Bft) 95,74 %
15.09.2020 17:26 34,6 C 36,7 C 26,7 C 45 % 1017,7 hPa 0,0 l/m 2 min 0 min 354 W/m 0,0 km/h (0 Bft) 97,83 %
15.09.2020 17:28 34,6 C 36,1 C 26,7 C 46 % 1017,7 hPa 0,0 l/m 2 min 0 min 349 W/m 3,2 km/h (1 Bft) 97,87 %
15.09.2020 17:30 34,5 C 36,1 C 26,7 C 45 % 1017,7 hPa 0,0 l/m 2 min 0 min 344 W/m 3,2 km/h (1 Bft) 97,87 %
15.09.2020 17:32 34,5 C 36,1 C 26,7 C 44 % 1017,7 hPa 0,0 l/m 2 min 0 min 338 W/m 0,0 km/h (0 Bft) 95,74 %
15.09.2020 17:34 34,4 C 36,1 C 26,1 C 46 % 1017,7 hPa 0,0 l/m 2 min 0 min 332 W/m 0,0 km/h (0 Bft) 97,87 %
15.09.2020 17:36 34,4 C 36,1 C 26,1 C 45 % 1017,7 hPa 0,0 l/m 2 min 0 min 327 W/m 3,2 km/h (1 Bft) 97,87 %
15.09.2020 17:38 34,4 C 35,6 C 26,1 C 46 % 1017,7 hPa 0,0 l/m 2 min 0 min 320 W/m 0,0 km/h (0 Bft) 97,83 %
15.09.2020 17:40 34,4 C 35,6 C 26,1 C 47 % 1017,7 hPa 0,0 l/m 2 min 0 min 313 W/m 3,2 km/h (1 Bft) 91,49 %
15.09.2020 17:42 34,3 C 36,1 C 26,1 C 43 % 1017,7 hPa 0,0 l/m 2 min 0 min 306 W/m 0,0 km/h (0 Bft) 93,62 %
15.09.2020 17:44 34,3 C 35,6 C 25,6 C 45 % 1017,7 hPa 0,0 l/m 2 min 0 min 300 W/m 0,0 km/h (0 Bft) 89,36 %
15.09.2020 17:46 34,3 C 35,0 C 25,6 C 44 % 1017,6 hPa 0,0 l/m 2 min 0 min 293 W/m 0,0 km/h (0 Bft) 93,62 %
15.09.2020 17:48 34,2 C 33,3 C 25,6 C 47 % 1017,6 hPa 0,0 l/m 2 min 0 min 286 W/m 0,0 km/h (0 Bft) 93,62 %
15.09.2020 17:50 34,1 C 32,8 C 25,6 C 50 % 1017,7 hPa 0,0 l/m 2 min 0 min 266 W/m 0,0 km/h (0 Bft) 93,48 %
15.09.2020 17:52 34,0 C 32,2 C 25,0 C 48 % 1017,7 hPa 0,0 l/m 0 min 0 min 138 W/m 0,0 km/h (0 Bft) 93,62 %
15.09.2020 17:54 33,8 C 31,7 C 25,0 C 48 % 1017,7 hPa 0,0 l/m 0 min 0 min 70 W/m 0,0 km/h (0 Bft) 93,62 %
15.09.2020 17:56 33,7 C 31,1 C 25,0 C 50 % 1017,6 hPa 0,0 l/m 0 min 0 min 68 W/m 0,0 km/h (0 Bft) 89,36 %
15.09.2020 17:58 33,5 C 30,6 C 25,0 C 50 % 1017,7 hPa 0,0 l/m 0 min 0 min 65 W/m 0,0 km/h (0 Bft) 93,62 %
15.09.2020 18:00 33,3 C 30,6 C 25,0 C 50 % 1017,6 hPa 0,0 l/m 0 min 0 min 64 W/m 0,0 km/h (0 Bft) 93,48 %
15.09.2020 18:02 33,2 C 30,0 C 24,4 C 51 % 1017,6 hPa 0,0 l/m 0 min 0 min 63 W/m 0,0 km/h (0 Bft) 91,49 %
15.09.2020 18:04 33,0 C 30,0 C 24,4 C 48 % 1017,6 hPa 0,0 l/m 0 min 0 min 62 W/m 0,0 km/h (0 Bft) 93,62 %
15.09.2020 18:08 32,7 C 30,0 C 24,4 C 48 % 1017,6 hPa 0,0 l/m 0 min 0 min 59 W/m 0,0 km/h (0 Bft) 92,55 %
15.09.2020 18:10 32,5 C 29,4 C 24,4 C 50 % 1017,7 hPa 0,0 l/m 0 min 0 min 56 W/m 0,0 km/h (0 Bft) 93,62 %
15.09.2020 18:12 32,4 C 29,4 C 24,4 C 49 % 1017,6 hPa 0,0 l/m 0 min 0 min 54 W/m 0,0 km/h (0 Bft) 95,74 %
15.09.2020 18:14 32,3 C 29,4 C 24,4 C 49 % 1017,6 hPa 0,0 l/m 0 min 0 min 53 W/m 0,0 km/h (0 Bft) 91,30 %
15.09.2020 18:16 32,2 C 29,4 C 24,4 C 49 % 1017,6 hPa 0,0 l/m 0 min 0 min 52 W/m 0,0 km/h (0 Bft) 89,36 %
15.09.2020 18:18 32,2 C 29,4 C 24,4 C 49 % 1017,6 hPa 0,0 l/m 0 min 0 min 50 W/m 0,0 km/h (0 Bft) 93,62 %
15.09.2020 18:20 32,1 C 29,4 C 23,9 C 48 % 1017,6 hPa 0,0 l/m 0 min 0 min 48 W/m 0,0 km/h (0 Bft) 93,62 %
15.09.2020 18:22 32,0 C 28,9 C 23,9 C 48 % 1017,6 hPa 0,0 l/m 0 min 0 min 47 W/m 0,0 km/h (0 Bft) 93,62 %
15.09.2020 18:24 31,9 C 28,9 C 23,9 C 49 % 1017,6 hPa 0,0 l/m 0 min 0 min 46 W/m 0,0 km/h (0 Bft) 95,65 %
15.09.2020 18:26 31,8 C 28,9 C 23,9 C 50 % 1017,6 hPa 0,0 l/m 0 min 0 min 44 W/m 0,0 km/h (0 Bft) 95,74 %
15.09.2020 18:28 31,6 C 28,9 C 23,9 C 49 % 1017,6 hPa 0,0 l/m 0 min 0 min 42 W/m 0,0 km/h (0 Bft) 95,74 %
15.09.2020 18:30 31,5 C 28,3 C 23,9 C 52 % 1017,5 hPa 0,0 l/m 0 min 0 min 41 W/m 0,0 km/h (0 Bft) 95,74 %
15.09.2020 18:32 31,3 C 28,3 C 23,9 C 53 % 1017,6 hPa 0,0 l/m 0 min 0 min 40 W/m 0,0 km/h (0 Bft) 95,74 %
15.09.2020 18:34 31,2 C 27,8 C 23,9 C 54 % 1017,5 hPa 0,0 l/m 0 min 0 min 39 W/m 0,0 km/h (0 Bft) 95,74 %
15.09.2020 18:36 31,1 C 27,8 C 23,3 C 56 % 1017,5 hPa 0,0 l/m 0 min 0 min 38 W/m 0,0 km/h (0 Bft) 95,65 %
15.09.2020 18:38 30,9 C 27,8 C 23,3 C 56 % 1017,5 hPa 0,0 l/m 0 min 0 min 37 W/m 0,0 km/h (0 Bft) 97,50 %
15.09.2020 18:40 30,7 C 27,2 C 23,3 C 57 % 1017,5 hPa 0,0 l/m 0 min 0 min 35 W/m 0,0 km/h (0 Bft) 97,87 %
15.09.2020 18:42 30,6 C 27,2 C 23,3 C 58 % 1017,5 hPa 0,0 l/m 0 min 0 min 35 W/m 0,0 km/h (0 Bft) 95,74 %
15.09.2020 18:44 30,4 C 27,2 C 23,3 C 57 % 1017,5 hPa 0,0 l/m 0 min 0 min 33 W/m 0,0 km/h (0 Bft) 97,87 %
15.09.2020 18:46 30,3 C 26,7 C 23,3 C 59 % 1017,5 hPa 0,0 l/m 0 min 0 min 31 W/m 0,0 km/h (0 Bft) 97,87 %
15.09.2020 18:48 30,1 C 26,7 C 23,3 C 59 % 1017,6 hPa 0,0 l/m 0 min 0 min 27 W/m 0,0 km/h (0 Bft) 97,87 %
15.09.2020 18:50 29,9 C 26,1 C 23,3 C 60 % 1017,5 hPa 0,0 l/m 0 min 0 min 25 W/m 0,0 km/h (0 Bft) 97,83 %
15.09.2020 18:52 29,8 C 26,1 C 22,8 C 61 % 1017,6 hPa 0,0 l/m 0 min 0 min 25 W/m 0,0 km/h (0 Bft) 97,87 %
15.09.2020 18:54 29,6 C 26,1 C 22,8 C 62 % 1017,6 hPa 0,0 l/m 0 min 0 min 25 W/m 0,0 km/h (0 Bft) 100,00 %
15.09.2020 18:56 29,5 C 25,6 C 22,8 C 62 % 1017,5 hPa 0,0 l/m 0 min 0 min 25 W/m 0,0 km/h (0 Bft) 100,00 %
15.09.2020 18:58 29,3 C 25,6 C 22,2 C 63 % 1017,6 hPa 0,0 l/m 0 min 0 min 25 W/m 0,0 km/h (0 Bft) 100,00 %
15.09.2020 19:00 29,2 C 25,6 C 22,2 C 64 % 1017,5 hPa 0,0 l/m 0 min 0 min 23 W/m 0,0 km/h (0 Bft) 100,00 %
15.09.2020 19:02 29,0 C 25,0 C 22,2 C 65 % 1017,5 hPa 0,0 l/m 0 min 0 min 20 W/m 0,0 km/h (0 Bft) 100,00 %
15.09.2020 19:04 28,8 C 25,0 C 21,7 C 66 % 1017,6 hPa 0,0 l/m 0 min 0 min 18 W/m 0,0 km/h (0 Bft) 100,00 %
15.09.2020 19:06 28,7 C 25,0 C 21,7 C 66 % 1017,6 hPa 0,0 l/m 0 min 0 min 17 W/m 0,0 km/h (0 Bft) 97,87 %
15.09.2020 19:08 28,6 C 24,4 C 21,7 C 67 % 1017,6 hPa 0,0 l/m 0 min 0 min 15 W/m 0,0 km/h (0 Bft) 100,00 %
15.09.2020 19:10 28,4 C 24,4 C 21,1 C 67 % 1017,6 hPa 0,0 l/m 0 min 0 min 14 W/m 0,0 km/h (0 Bft) 100,00 %
15.09.2020 19:12 28,2 C 24,4 C 21,1 C 67 % 1017,6 hPa 0,0 l/m 0 min 0 min 14 W/m 0,0 km/h (0 Bft) 100,00 %
15.09.2020 19:14 28,1 C 23,9 C 21,1 C 68 % 1017,6 hPa 0,0 l/m 0 min 0 min 12 W/m 0,0 km/h (0 Bft) 100,00 %
15.09.2020 19:16 27,9 C 23,9 C 21,1 C 68 % 1017,6 hPa 0,0 l/m 0 min 0 min 12 W/m 0,0 km/h (0 Bft) 97,87 %
15.09.2020 19:18 27,8 C 23,9 C 21,1 C 69 % 1017,6 hPa 0,0 l/m 0 min 0 min 12 W/m 0,0 km/h (0 Bft) 100,00 %
15.09.2020 19:20 27,6 C 23,9 C 21,1 C 69 % 1017,6 hPa 0,0 l/m 0 min 0 min 11 W/m 0,0 km/h (0 Bft) 100,00 %
15.09.2020 19:22 27,5 C 23,9 C 20,6 C 69 % 1017,6 hPa 0,0 l/m 0 min 0 min 11 W/m 0,0 km/h (0 Bft) 100,00 %
15.09.2020 19:24 27,3 C 23,3 C 20,6 C 70 % 1017,5 hPa 0,0 l/m 0 min 0 min 11 W/m 0,0 km/h (0 Bft) 100,00 %
15.09.2020 19:26 27,2 C 23,3 C 20,6 C 70 % 1017,5 hPa 0,0 l/m 0 min 0 min 11 W/m 0,0 km/h (0 Bft) 100,00 %
15.09.2020 19:28 27,1 C 23,3 C 20,6 C 70 % 1017,5 hPa 0,0 l/m 0 min 0 min 11 W/m 0,0 km/h (0 Bft) 100,00 %
15.09.2020 19:30 26,9 C 23,3 C 20,6 C 70 % 1017,5 hPa 0,0 l/m 0 min 0 min 10 W/m 0,0 km/h (0 Bft) 100,00 %
15.09.2020 19:32 26,8 C 23,3 C 20,6 C 70 % 1017,5 hPa 0,0 l/m 0 min 0 min 9 W/m 0,0 km/h (0 Bft) 97,87 %
15.09.2020 19:34 26,7 C 23,3 C 20,6 C 69 % 1017,6 hPa 0,0 l/m 0 min 0 min 8 W/m 0,0 km/h (0 Bft) 100,00 %
15.09.2020 19:36 26,6 C 22,8 C 20,0 C 70 % 1017,6 hPa 0,0 l/m 0 min 0 min 7 W/m 0,0 km/h (0 Bft) 100,00 %
15.09.2020 19:38 26,4 C 22,8 C 20,0 C 70 % 1017,6 hPa 0,0 l/m 0 min 0 min 7 W/m 0,0 km/h (0 Bft) 100,00 %
15.09.2020 19:40 26,3 C 22,8 C 20,0 C 70 % 1017,6 hPa 0,0 l/m 0 min 0 min 5 W/m 0,0 km/h (0 Bft) 100,00 %
15.09.2020 19:42 26,2 C 22,8 C 20,0 C 70 % 1017,5 hPa 0,0 l/m 0 min 0 min 5 W/m 0,0 km/h (0 Bft) 100,00 %
15.09.2020 19:44 26,1 C 22,8 C 20,0 C 70 % 1017,6 hPa 0,0 l/m 0 min 0 min 3 W/m 0,0 km/h (0 Bft) 100,00 %
15.09.2020 19:46 26,0 C 22,8 C 20,0 C 71 % 1017,6 hPa 0,0 l/m 0 min 0 min 0 W/m 0,0 km/h (0 Bft) 100,00 %
15.09.2020 19:48 25,8 C 22,8 C 20,0 C 71 % 1017,5 hPa 0,0 l/m 0 min 0 min 0 W/m 0,0 km/h (0 Bft) 100,00 %
15.09.2020 19:50 25,7 C 22,2 C 20,0 C 71 % 1017,6 hPa 0,0 l/m 0 min 0 min 0 W/m 0,0 km/h (0 Bft) 100,00 %
15.09.2020 19:52 25,6 C 22,2 C 20,0 C 71 % 1017,6 hPa 0,0 l/m 0 min 0 min 0 W/m 0,0 km/h (0 Bft) 100,00 %
15.09.2020 19:54 25,5 C 22,2 C 19,4 C 71 % 1017,6 hPa 0,0 l/m 0 min 0 min 0 W/m 0,0 km/h (0 Bft) 100,00 %
15.09.2020 19:56 25,4 C 22,2 C 19,4 C 71 % 1017,6 hPa 0,0 l/m 0 min 0 min 0 W/m 0,0 km/h (0 Bft) 100,00 %
15.09.2020 19:58 25,3 C 22,2 C 19,4 C 72 % 1017,6 hPa 0,0 l/m 0 min 0 min 0 W/m 0,0 km/h (0 Bft) 100,00 %
15.09.2020 20:00 25,2 C 21,7 C 19,4 C 72 % 1017,6 hPa 0,0 l/m 0 min 0 min 0 W/m 0,0 km/h (0 Bft) 100,00 %
15.09.2020 20:02 25,1 C 21,7 C 19,4 C 72 % 1017,6 hPa 0,0 l/m 0 min 0 min 0 W/m 0,0 km/h (0 Bft) 97,87 %
15.09.2020 20:04 25,0 C 21,7 C 19,4 C 72 % 1017,6 hPa 0,0 l/m 0 min 0 min 0 W/m 0,0 km/h (0 Bft) 100,00 %
15.09.2020 20:06 24,9 C 21,7 C 19,4 C 72 % 1017,6 hPa 0,0 l/m 0 min 0 min 0 W/m 0,0 km/h (0 Bft) 100,00 %
15.09.2020 20:08 24,8 C 21,7 C 19,4 C 72 % 1017,6 hPa 0,0 l/m 0 min 0 min 0 W/m 0,0 km/h (0 Bft) 100,00 %
15.09.2020 20:10 24,7 C 21,7 C 19,4 C 72 % 1017,6 hPa 0,0 l/m 0 min 0 min 0 W/m 0,0 km/h (0 Bft) 100,00 %
15.09.2020 20:12 24,6 C 21,7 C 19,4 C 73 % 1017,7 hPa 0,0 l/m 0 min 0 min 0 W/m 0,0 km/h (0 Bft) 100,00 %
15.09.2020 20:14 24,5 C 21,7 C 19,4 C 73 % 1017,7 hPa 0,0 l/m 0 min 0 min 0 W/m 0,0 km/h (0 Bft) 95,74 %
15.09.2020 20:16 24,4 C 21,7 C 19,4 C 73 % 1017,7 hPa 0,0 l/m 0 min 0 min 0 W/m 0,0 km/h (0 Bft) 100,00 %
15.09.2020 20:18 24,3 C 21,1 C 19,4 C 73 % 1017,7 hPa 0,0 l/m 0 min 0 min 0 W/m 0,0 km/h (0 Bft) 93,62 %
15.09.2020 20:20 24,3 C 21,1 C 19,4 C 74 % 1017,7 hPa 0,0 l/m 0 min 0 min 0 W/m 0,0 km/h (0 Bft) 97,87 %
15.09.2020 20:22 24,2 C 21,1 C 18,9 C 74 % 1017,7 hPa 0,0 l/m 0 min 0 min 0 W/m 0,0 km/h (0 Bft) 97,87 %
15.09.2020 20:24 24,1 C 21,1 C 18,9 C 74 % 1017,7 hPa 0,0 l/m 0 min 0 min 0 W/m 0,0 km/h (0 Bft) 97,87 %
15.09.2020 20:26 24,0 C 21,1 C 18,9 C 75 % 1017,7 hPa 0,0 l/m 0 min 0 min 0 W/m 0,0 km/h (0 Bft) 97,87 %
15.09.2020 20:28 23,9 C 21,1 C 18,9 C 75 % 1017,7 hPa 0,0 l/m 0 min 0 min 0 W/m 0,0 km/h (0 Bft) 97,87 %
15.09.2020 20:30 23,9 C 21,1 C 18,9 C 75 % 1017,7 hPa 0,0 l/m 0 min 0 min 0 W/m 0,0 km/h (0 Bft) 97,87 %
15.09.2020 20:32 23,8 C 21,1 C 18,9 C 75 % 1017,8 hPa 0,0 l/m 0 min 0 min 0 W/m 0,0 km/h (0 Bft) 100,00 %
15.09.2020 20:34 23,7 C 21,1 C 18,9 C 75 % 1017,8 hPa 0,0 l/m 0 min 0 min 0 W/m 0,0 km/h (0 Bft) 97,87 %
15.09.2020 20:36 23,7 C 21,1 C 18,9 C 75 % 1017,8 hPa 0,0 l/m 0 min 0 min 0 W/m 0,0 km/h (0 Bft) 93,62 %
15.09.2020 20:38 23,6 C 21,1 C 18,9 C 75 % 1017,9 hPa 0,0 l/m 0 min 0 min 0 W/m 0,0 km/h (0 Bft) 97,87 %
15.09.2020 20:40 23,5 C 21,1 C 18,9 C 75 % 1017,9 hPa 0,0 l/m 0 min 0 min 0 W/m 0,0 km/h (0 Bft) 97,87 %
15.09.2020 20:42 23,4 C 20,6 C 18,9 C 75 % 1017,9 hPa 0,0 l/m 0 min 0 min 0 W/m 0,0 km/h (0 Bft) 97,87 %
15.09.2020 20:44 23,4 C 20,6 C 18,9 C 75 % 1017,9 hPa 0,0 l/m 0 min 0 min 0 W/m 0,0 km/h (0 Bft) 97,83 %
15.09.2020 20:46 23,3 C 20,6 C 18,9 C 75 % 1017,8 hPa 0,0 l/m 0 min 0 min 0 W/m 0,0 km/h (0 Bft) 97,87 %
15.09.2020 20:48 23,2 C 20,6 C 18,9 C 75 % 1017,9 hPa 0,0 l/m 0 min 0 min 0 W/m 0,0 km/h (0 Bft) 97,87 %
15.09.2020 20:50 23,2 C 20,6 C 18,9 C 75 % 1017,9 hPa 0,0 l/m 0 min 0 min 0 W/m 0,0 km/h (0 Bft) 95,74 %
15.09.2020 20:52 23,1 C 20,6 C 18,9 C 75 % 1017,9 hPa 0,0 l/m 0 min 0 min 0 W/m 0,0 km/h (0 Bft) 95,74 %
15.09.2020 20:54 23,1 C 20,6 C 18,9 C 75 % 1017,9 hPa 0,0 l/m 0 min 0 min 0 W/m 0,0 km/h (0 Bft) 100,00 %
15.09.2020 20:56 23,0 C 20,6 C 18,9 C 75 % 1017,9 hPa 0,0 l/m 0 min 0 min 0 W/m 0,0 km/h (0 Bft) 95,65 %
15.09.2020 20:58 22,9 C 20,6 C 18,9 C 75 % 1017,9 hPa 0,0 l/m 0 min 0 min 0 W/m 0,0 km/h (0 Bft) 97,87 %
15.09.2020 21:00 22,9 C 20,6 C 18,9 C 75 % 1017,9 hPa 0,0 l/m 0 min 0 min 0 W/m 0,0 km/h (0 Bft) 95,74 %
15.09.2020 21:02 22,8 C 20,6 C 18,3 C 75 % 1017,9 hPa 0,0 l/m 0 min 0 min 0 W/m 0,0 km/h (0 Bft) 95,74 %
15.09.2020 21:04 22,8 C 20,6 C 18,3 C 75 % 1017,9 hPa 0,0 l/m 0 min 0 min 0 W/m 0,0 km/h (0 Bft) 95,74 %
15.09.2020 21:06 22,7 C 20,6 C 18,3 C 75 % 1017,9 hPa 0,0 l/m 0 min 0 min 0 W/m 0,0 km/h (0 Bft) 95,65 %
15.09.2020 21:08 22,7 C 20,6 C 18,3 C 75 % 1017,9 hPa 0,0 l/m 0 min 0 min 0 W/m 0,0 km/h (0 Bft) 95,74 %
15.09.2020 21:10 22,6 C 20,6 C 18,3 C 75 % 1018,0 hPa 0,0 l/m 0 min 0 min 0 W/m 0,0 km/h (0 Bft) 97,87 %
15.09.2020 21:12 22,6 C 20,6 C 18,3 C 75 % 1018,0 hPa 0,0 l/m 0 min 0 min 0 W/m 0,0 km/h (0 Bft) 93,62 %
15.09.2020 21:14 22,5 C 20,0 C 18,3 C 75 % 1017,9 hPa 0,0 l/m 0 min 0 min 0 W/m 0,0 km/h (0 Bft) 95,74 %
15.09.2020 21:16 22,5 C 20,0 C 18,3 C 75 % 1017,9 hPa 0,0 l/m 0 min 0 min 0 W/m 0,0 km/h (0 Bft) 95,74 %
15.09.2020 21:18 22,4 C 20,6 C 18,3 C 75 % 1017,9 hPa 0,0 l/m 0 min 0 min 0 W/m 0,0 km/h (0 Bft) 95,65 %
15.09.2020 21:20 22,4 C 20,6 C 18,3 C 75 % 1017,9 hPa 0,0 l/m 0 min 0 min 0 W/m 0,0 km/h (0 Bft) 95,74 %
15.09.2020 21:22 22,3 C 20,6 C 18,3 C 75 % 1018,0 hPa 0,0 l/m 0 min 0 min 0 W/m 0,0 km/h (0 Bft) 95,74 %
15.09.2020 21:24 22,3 C 20,6 C 18,3 C 75 % 1018,0 hPa 0,0 l/m 0 min 0 min 0 W/m 0,0 km/h (0 Bft) 95,74 %
15.09.2020 21:26 22,3 C 20,6 C 18,3 C 75 % 1018,0 hPa 0,0 l/m 0 min 0 min 0 W/m 0,0 km/h (0 Bft) 93,62 %
15.09.2020 21:28 22,2 C 20,6 C 18,3 C 75 % 1018,0 hPa 0,0 l/m 0 min 0 min 0 W/m 0,0 km/h (0 Bft) 95,74 %
15.09.2020 21:30 22,2 C 20,6 C 18,3 C 75 % 1018,0 hPa 0,0 l/m 0 min 0 min 0 W/m 0,0 km/h (0 Bft) 95,65 %
15.09.2020 21:32 22,1 C 20,6 C 18,3 C 75 % 1018,0 hPa 0,0 l/m 0 min 0 min 0 W/m 0,0 km/h (0 Bft) 93,62 %
15.09.2020 21:34 22,1 C 20,6 C 18,3 C 74 % 1018,0 hPa 0,0 l/m 0 min 0 min 0 W/m 0,0 km/h (0 Bft) 95,74 %
15.09.2020 21:36 22,1 C 20,0 C 18,3 C 74 % 1017,9 hPa 0,0 l/m 0 min 0 min 0 W/m 0,0 km/h (0 Bft) 95,74 %
15.09.2020 21:38 22,1 C 20,0 C 18,3 C 75 % 1018,0 hPa 0,0 l/m 0 min 0 min 0 W/m 0,0 km/h (0 Bft) 93,62 %
15.09.2020 21:40 22,0 C 20,0 C 18,3 C 75 % 1018,0 hPa 0,0 l/m 0 min 0 min 0 W/m 0,0 km/h (0 Bft) 95,74 %
15.09.2020 21:42 21,9 C 20,0 C 18,3 C 75 % 1018,0 hPa 0,0 l/m 0 min 0 min 0 W/m 0,0 km/h (0 Bft) 95,65 %
15.09.2020 21:44 21,9 C 20,0 C 18,3 C 75 % 1018,0 hPa 0,0 l/m 0 min 0 min 0 W/m 0,0 km/h (0 Bft) 95,74 %
15.09.2020 21:46 21,9 C 20,0 C 18,3 C 76 % 1018,0 hPa 0,0 l/m 0 min 0 min 0 W/m 0,0 km/h (0 Bft) 95,74 %
15.09.2020 21:48 21,9 C 20,0 C 18,3 C 76 % 1018,0 hPa 0,0 l/m 0 min 0 min 0 W/m 0,0 km/h (0 Bft) 97,87 %
15.09.2020 21:50 21,8 C 20,0 C 18,3 C 76 % 1018,0 hPa 0,0 l/m 0 min 0 min 0 W/m 0,0 km/h (0 Bft) 95,74 %
15.09.2020 21:52 21,8 C 20,0 C 18,3 C 76 % 1018,0 hPa 0,0 l/m 0 min 0 min 0 W/m 0,0 km/h (0 Bft) 95,74 %
15.09.2020 21:54 21,8 C 20,0 C 18,3 C 76 % 1018,1 hPa 0,0 l/m 0 min 0 min 0 W/m 0,0 km/h (0 Bft) 95,65 %
15.09.2020 21:56 21,7 C 20,0 C 18,3 C 76 % 1018,0 hPa 0,0 l/m 0 min 0 min 0 W/m 0,0 km/h (0 Bft) 95,74 %
15.09.2020 21:58 21,7 C 20,0 C 17,8 C 76 % 1018,1 hPa 0,0 l/m 0 min 0 min 0 W/m 0,0 km/h (0 Bft) 95,74 %
15.09.2020 22:00 21,7 C 20,0 C 17,8 C 76 % 1018,1 hPa 0,0 l/m 0 min 0 min 0 W/m 0,0 km/h (0 Bft) 97,87 %
15.09.2020 22:02 21,7 C 20,0 C 17,8 C 76 % 1018,1 hPa 0,0 l/m 0 min 0 min 0 W/m 0,0 km/h (0 Bft) 97,87 %
15.09.2020 22:04 21,6 C 20,0 C 17,8 C 76 % 1018,1 hPa 0,0 l/m 0 min 0 min 0 W/m 0,0 km/h (0 Bft) 97,83 %
15.09.2020 22:06 21,6 C 20,0 C 17,8 C 76 % 1018,1 hPa 0,0 l/m 0 min 0 min 0 W/m 0,0 km/h (0 Bft) 97,87 %
15.09.2020 22:08 21,6 C 19,4 C 17,8 C 76 % 1018,1 hPa 0,0 l/m 0 min 0 min 0 W/m 0,0 km/h (0 Bft) 100,00 %
15.09.2020 22:10 21,6 C 19,4 C 17,8 C 76 % 1018,1 hPa 0,0 l/m 0 min 0 min 0 W/m 0,0 km/h (0 Bft) 100,00 %
15.09.2020 22:12 21,5 C 19,4 C 17,8 C 77 % 1018,0 hPa 0,0 l/m 0 min 0 min 0 W/m 0,0 km/h (0 Bft) 97,87 %
15.09.2020 22:14 21,4 C 19,4 C 17,8 C 77 % 1018,0 hPa 0,0 l/m 0 min 0 min 0 W/m 0,0 km/h (0 Bft) 100,00 %
15.09.2020 22:16 21,4 C 19,4 C 17,8 C 77 % 1018,0 hPa 0,0 l/m 0 min 0 min 0 W/m 0,0 km/h (0 Bft) 97,83 %
15.09.2020 22:18 21,4 C 19,4 C 17,8 C 77 % 1018,0 hPa 0,0 l/m 0 min 0 min 0 W/m 0,0 km/h (0 Bft) 100,00 %
15.09.2020 22:20 21,4 C 19,4 C 17,8 C 77 % 1018,0 hPa 0,0 l/m 0 min 0 min 0 W/m 0,0 km/h (0 Bft) 100,00 %
15.09.2020 22:22 21,3 C 19,4 C 17,8 C 77 % 1018,0 hPa 0,0 l/m 0 min 0 min 0 W/m 0,0 km/h (0 Bft) 100,00 %
15.09.2020 22:24 21,3 C 19,4 C 17,8 C 77 % 1018,0 hPa 0,0 l/m 0 min 0 min 0 W/m 0,0 km/h (0 Bft) 97,87 %
15.09.2020 22:26 21,3 C 18,9 C 17,8 C 78 % 1018,0 hPa 0,0 l/m 0 min 0 min 0 W/m 0,0 km/h (0 Bft) 100,00 %
15.09.2020 22:28 21,2 C 18,9 C 17,8 C 78 % 1018,0 hPa 0,0 l/m 0 min 0 min 0 W/m 0,0 km/h (0 Bft) 100,00 %
15.09.2020 22:30 21,2 C 18,9 C 17,8 C 78 % 1018,0 hPa 0,0 l/m 0 min 0 min 0 W/m 0,0 km/h (0 Bft) 97,83 %
15.09.2020 22:32 21,1 C 18,9 C 17,8 C 78 % 1018,0 hPa 0,0 l/m 0 min 0 min 0 W/m 0,0 km/h (0 Bft) 100,00 %
15.09.2020 22:34 21,1 C 18,9 C 17,8 C 78 % 1018,0 hPa 0,0 l/m 0 min 0 min 0 W/m 0,0 km/h (0 Bft) 100,00 %
15.09.2020 22:36 21,1 C 18,9 C 17,8 C 78 % 1018,0 hPa 0,0 l/m 0 min 0 min 0 W/m 0,0 km/h (0 Bft) 100,00 %
15.09.2020 22:38 21,1 C 18,9 C 17,8 C 78 % 1017,9 hPa 0,0 l/m 0 min 0 min 0 W/m 0,0 km/h (0 Bft) 100,00 %
15.09.2020 22:40 21,0 C 18,9 C 17,2 C 78 % 1017,9 hPa 0,0 l/m 0 min 0 min 0 W/m 0,0 km/h (0 Bft) 100,00 %
15.09.2020 22:42 21,0 C 18,9 C 17,2 C 78 % 1018,0 hPa 0,0 l/m 0 min 0 min 0 W/m 0,0 km/h (0 Bft) 97,87 %
15.09.2020 22:44 20,9 C 18,9 C 17,2 C 79 % 1017,9 hPa 0,0 l/m 0 min 0 min 0 W/m 0,0 km/h (0 Bft) 97,87 %
15.09.2020 22:46 20,9 C 18,9 C 17,2 C 79 % 1018,0 hPa 0,0 l/m 0 min 0 min 0 W/m 0,0 km/h (0 Bft) 97,87 %
15.09.2020 22:48 20,8 C 18,9 C 17,2 C 79 % 1017,9 hPa 0,0 l/m 0 min 0 min 0 W/m 0,0 km/h (0 Bft) 100,00 %
15.09.2020 22:50 20,8 C 18,9 C 17,2 C 79 % 1017,9 hPa 0,0 l/m 0 min 0 min 0 W/m 0,0 km/h (0 Bft) 97,87 %
15.09.2020 22:52 20,8 C 18,9 C 17,2 C 79 % 1017,9 hPa 0,0 l/m 0 min 0 min 0 W/m 0,0 km/h (0 Bft) 100,00 %
15.09.2020 22:54 20,7 C 18,9 C 17,2 C 79 % 1017,9 hPa 0,0 l/m 0 min 0 min 0 W/m 0,0 km/h (0 Bft) 97,87 %
15.09.2020 22:56 20,7 C 18,9 C 17,2 C 79 % 1018,0 hPa 0,0 l/m 0 min 0 min 0 W/m 0,0 km/h (0 Bft) 100,00 %
15.09.2020 22:58 20,7 C 18,9 C 17,2 C 79 % 1018,0 hPa 0,0 l/m 0 min 0 min 0 W/m 0,0 km/h (0 Bft) 100,00 %
15.09.2020 23:00 20,6 C 19,4 C 17,2 C 79 % 1018,0 hPa 0,0 l/m 0 min 0 min 0 W/m 0,0 km/h (0 Bft) 100,00 %
15.09.2020 23:02 20,6 C 19,4 C 17,2 C 79 % 1018,1 hPa 0,0 l/m 0 min 0 min 0 W/m 0,0 km/h (0 Bft) 100,00 %
15.09.2020 23:04 20,6 C 19,4 C 17,2 C 79 % 1018,1 hPa 0,0 l/m 0 min 0 min 0 W/m 0,0 km/h (0 Bft) 100,00 %
15.09.2020 23:06 20,6 C 18,9 C 17,2 C 79 % 1018,1 hPa 0,0 l/m 0 min 0 min 0 W/m 0,0 km/h (0 Bft) 100,00 %
15.09.2020 23:08 20,5 C 18,9 C 17,2 C 79 % 1018,1 hPa 0,0 l/m 0 min 0 min 0 W/m 0,0 km/h (0 Bft) 100,00 %
15.09.2020 23:10 20,5 C 18,9 C 17,2 C 79 % 1018,1 hPa 0,0 l/m 0 min 0 min 0 W/m 0,0 km/h (0 Bft) 100,00 %
15.09.2020 23:12 20,4 C 18,9 C 17,2 C 79 % 1018,2 hPa 0,0 l/m 0 min 0 min 0 W/m 0,0 km/h (0 Bft) 95,74 %
15.09.2020 23:14 20,4 C 18,9 C 17,2 C 79 % 1018,1 hPa 0,0 l/m 0 min 0 min 0 W/m 0,0 km/h (0 Bft) 97,87 %
15.09.2020 23:16 20,4 C 18,9 C 17,2 C 79 % 1018,1 hPa 0,0 l/m 0 min 0 min 0 W/m 0,0 km/h (0 Bft) 97,83 %
15.09.2020 23:18 20,4 C 18,9 C 17,2 C 79 % 1018,1 hPa 0,0 l/m 0 min 0 min 0 W/m 0,0 km/h (0 Bft) 97,87 %
15.09.2020 23:20 20,3 C 18,9 C 17,2 C 79 % 1018,1 hPa 0,0 l/m 0 min 0 min 0 W/m 0,0 km/h (0 Bft) 97,87 %
15.09.2020 23:22 20,3 C 18,9 C 17,2 C 79 % 1018,2 hPa 0,0 l/m 0 min 0 min 0 W/m 0,0 km/h (0 Bft) 95,74 %
15.09.2020 23:24 20,3 C 18,9 C 17,2 C 79 % 1018,2 hPa 0,0 l/m 0 min 0 min 0 W/m 0,0 km/h (0 Bft) 97,87 %
15.09.2020 23:26 20,3 C 18,9 C 17,2 C 79 % 1018,2 hPa 0,0 l/m 0 min 0 min 0 W/m 0,0 km/h (0 Bft) 97,87 %
15.09.2020 23:28 20,2 C 18,3 C 17,2 C 79 % 1018,2 hPa 0,0 l/m 0 min 0 min 0 W/m 0,0 km/h (0 Bft) 95,65 %
15.09.2020 23:30 20,2 C 18,3 C 17,2 C 79 % 1018,2 hPa 0,0 l/m 0 min 0 min 0 W/m 0,0 km/h (0 Bft) 97,87 %
15.09.2020 23:32 20,2 C 18,3 C 17,2 C 79 % 1018,2 hPa 0,0 l/m 0 min 0 min 0 W/m 0,0 km/h (0 Bft) 95,74 %
15.09.2020 23:34 20,2 C 18,3 C 17,2 C 79 % 1018,2 hPa 0,0 l/m 0 min 0 min 0 W/m 0,0 km/h (0 Bft) 97,87 %
15.09.2020 23:36 20,1 C 18,3 C 17,2 C 79 % 1018,2 hPa 0,0 l/m 0 min 0 min 0 W/m 0,0 km/h (0 Bft) 97,87 %
15.09.2020 23:38 20,1 C 18,3 C 17,2 C 79 % 1018,2 hPa 0,0 l/m 0 min 0 min 0 W/m 0,0 km/h (0 Bft) 97,83 %
15.09.2020 23:40 20,1 C 18,3 C 17,2 C 79 % 1018,2 hPa 0,0 l/m 0 min 0 min 0 W/m 0,0 km/h (0 Bft) 97,87 %
15.09.2020 23:42 20,1 C 18,3 C 17,2 C 79 % 1018,2 hPa 0,0 l/m 0 min 0 min 0 W/m 0,0 km/h (0 Bft) 93,62 %
15.09.2020 23:44 20,1 C 18,3 C 17,2 C 80 % 1018,1 hPa 0,0 l/m 0 min 0 min 0 W/m 0,0 km/h (0 Bft) 95,74 %
15.09.2020 23:46 20,1 C 18,3 C 17,2 C 80 % 1018,1 hPa 0,0 l/m 0 min 0 min 0 W/m 0,0 km/h (0 Bft) 93,62 %
15.09.2020 23:48 20,0 C 18,3 C 17,2 C 80 % 1018,3 hPa 0,0 l/m 0 min 0 min 0 W/m 0,0 km/h (0 Bft) 95,74 %
15.09.2020 23:50 20,0 C 18,3 C 16,7 C 80 % 1018,2 hPa 0,0 l/m 0 min 0 min 0 W/m 0,0 km/h (0 Bft) 95,65 %
15.09.2020 23:52 19,9 C 18,3 C 16,7 C 80 % 1018,3 hPa 0,0 l/m 0 min 0 min 0 W/m 0,0 km/h (0 Bft) 93,62 %
15.09.2020 23:54 19,9 C 18,3 C 16,7 C 80 % 1018,2 hPa 0,0 l/m 0 min 0 min 0 W/m 0,0 km/h (0 Bft) 95,74 %
15.09.2020 23:56 19,9 C 18,3 C 16,7 C 80 % 1018,3 hPa 0,0 l/m 0 min 0 min 0 W/m 0,0 km/h (0 Bft) 95,74 %
15.09.2020 23:58 19,9 C 18,3 C 16,7 C 80 % 1018,3 hPa 0,0 l/m 0 min 0 min 0 W/m 0,0 km/h (0 Bft) 95,74 %
_ Min-Zeit 07:30 06:48 07:10 15:32 18:30 - - - - 00:00 17:44
Minimum _ 17,3 C 16,1 C 15,6 C 42 % 1017,5 hPa - - - - 0,0 km/h (0 Bft) 89,36 %
_ Max-Zeit 17:10 14:28 16:44 08:38 00:04 00:00 12:08 00:00 14:00 09:18 01:18
Maximum _ 34,9 C 39,4 C 35,0 C 86 % 1021,4 hPa 0,0 l/m 4 min 0 min 702 W/m 19,3 km/h
O-SO (3 Bft)
100,00 %
Durchschnitt _ 24,3 C 24,9 C 21,2 C 69 % 1019,4 hPa #0,0 l/m #8:28 h #0 min. 389 W/m 6,2 km/h (2 Bft) 97,48 %
© 2020 W. Hausmann